Flight Track Log - Related Links

Times and Time Zones

All times are in EDT time to prevent confusion due to time zone crossing. See the UAL48 flight status page for this flight to view local times or setup timezone preferences in your user account.


Time Position Orientation Groundspeed Altitude Reporting Facility
EDT Latitude Longitude Course Direction KTS MPH feet Rate Location/Type
Sun 09:02:51 PM 40.6751 -74.1788 205° Southwest 175 201 400  Level FlightAware ADS-B
Sun 09:02:58 PM 40.6696 -74.1796 186° South 169 194 800 3,273 Climbing FlightAware ADS-B
Sun 09:03:02 PM 40.6667 -74.1796 180° South 167 192 1,000 3,000 Climbing FlightAware ADS-B
Sun 09:03:12 PM 40.6591 -74.1793 178° South 164 189 1,500 2,800 Climbing FlightAware ADS-B
Sun 09:03:17 PM 40.6555 -74.1800 188° South 161 185 1,700 2,182 Climbing FlightAware ADS-B
Sun 09:03:23 PM 40.6509 -74.1826 203° Southwest 161 185 1,900 1,846 Climbing FlightAware ADS-B
Sun 09:03:30 PM 40.6476 -74.1870 225° Southwest 165 190 2,100 1,385 Climbing FlightAware ADS-B
Sun 09:03:36 PM 40.6458 -74.1935 250° West 174 200 2,200 545 Climbing FlightAware ADS-B
Sun 09:03:41 PM 40.6458 -74.1987 270° West 183 211 2,200 800 Level FlightAware ADS-B
Sun 09:03:51 PM 40.6498 -74.2091 297° West 196 226 2,400 1,286 Climbing FlightAware ADS-B
Sun 09:03:55 PM 40.6527 -74.2121 322° Northwest 206 237 2,500 1,500 Climbing FlightAware ADS-B
Sun 09:04:03 PM 40.6600 -74.2155 341° North 211 243 2,700 1,714 Climbing FlightAware ADS-B
Sun 09:04:09 PM 40.6657 -74.2151 North 213 245 2,900 1,714 Climbing FlightAware ADS-B
Sun 09:04:17 PM 40.6733 -74.2111 22° Northeast 215 247 3,100 1,125 Climbing FlightAware ADS-B
Sun 09:04:25 PM 40.6799 -74.2065 28° Northeast 222 255 3,200 900 Climbing FlightAware ADS-B
Sun 09:04:37 PM 40.6910 -74.1985 29° Northeast 233 268 3,400 720 Climbing FlightAware ADS-B
Sun 09:04:50 PM 40.7046 -74.1890 28° Northeast 254 292 3,500 667 Climbing FlightAware ADS-B
Sun 09:04:55 PM 40.7088 -74.1855 32° Northeast 259 298 3,600 1,200 Climbing FlightAware ADS-B
Sun 09:05:00 PM 40.7135 -74.1803 40° Northeast 260 299 3,700 1,765 Climbing FlightAware ADS-B
Sun 09:05:12 PM 40.7220 -74.1638 56° Northeast 262 302 4,100 1,800 Climbing FlightAware ADS-B
Sun 09:05:20 PM 40.7250 -74.1515 72° East 266 306 4,300 1,826 Climbing FlightAware ADS-B
Sun 09:05:35 PM 40.7299 -74.1276 75° East 272 313 4,800 2,400 Climbing FlightAware ADS-B
Sun 09:05:50 PM 40.7346 -74.1031 76° East 272 313 5,500 2,545 Climbing FlightAware ADS-B
Sun 09:06:08 PM 40.7402 -74.0746 75° East 274 315 6,200 2,538 Climbing FlightAware ADS-B
Sun 09:06:16 PM 40.7427 -74.0622 75° East 274 315 6,600 2,800 Climbing FlightAware ADS-B
Sun 09:06:23 PM 40.7451 -74.0503 75° East 274 315 6,900 2,400 Climbing FlightAware ADS-B
Sun 09:06:31 PM 40.7477 -74.0380 74° East 276 318 7,200 2,250 Climbing FlightAware ADS-B
Sun 09:06:39 PM 40.7504 -74.0244 75° East 279 321 7,500 2,118 Climbing FlightAware ADS-B
Sun 09:06:48 PM 40.7533 -74.0102 75° East 279 321 7,800 2,348 Climbing FlightAware ADS-B
Sun 09:07:02 PM 40.7583 -73.9862 75° East 280 322 8,400 2,400 Climbing FlightAware ADS-B
Sun 09:07:03 PM 40.7585 -73.9852 75° East 280 322 8,400 1,909 Level FlightAware ADS-B
Sun 09:07:24 PM 40.7660 -73.9496 74° East 284 327 9,100 1,895 Climbing FlightAware ADS-B
Sun 09:07:41 PM 40.7735 -73.9219 70° East 296 341 9,600 1,500 Climbing FlightAware ADS-B
Sun 09:07:44 PM 40.7756 -73.9168 61° Northeast 300 345 9,600 545 Level FlightAware ADS-B
Sun 09:08:03 PM 40.7926 -73.8882 52° Northeast 320 368 9,800 522 Climbing FlightAware ADS-B
Sun 09:08:07 PM 40.7970 -73.8827 43° Northeast 327 376 9,800 1,105 Level FlightAware ADS-B
Sun 09:08:41 PM 40.8359 -73.8347 43° Northeast 338 389 10,500 1,125 Climbing FlightAware ADS-B
Sun 09:09:11 PM 40.8723 -73.7886 44° Northeast 370 426 11,000 1,125 Climbing FlightAware ADS-B
Sun 09:09:45 PM 40.9151 -73.7346 44° Northeast 390 449 11,700 1,701 Climbing FlightAware ADS-B
Sun 09:10:18 PM 40.9586 -73.6796 44° Northeast 398 458 12,900 2,000 Climbing FlightAware ADS-B
Sun 09:10:57 PM 41.0040 -73.6220 44° Northeast 393 452 14,100 2,082 Climbing FlightAware ADS-B
Sun 09:11:07 PM 41.0237 -73.5969 44° Northeast 392 451 14,600 2,049 Climbing FlightAware ADS-B
Sun 09:11:38 PM 41.0640 -73.5456 44° Northeast 398 458 15,500 1,781 Climbing FlightAware ADS-B
Sun 09:12:11 PM 41.1082 -73.4891 44° Northeast 403 464 16,500 1,688 Climbing FlightAware ADS-B
Sun 09:12:42 PM 41.1501 -73.4355 44° Northeast 407 468 17,300 1,574 Climbing FlightAware ADS-B
Sun 09:13:12 PM 41.1913 -73.3828 44° Northeast 413 475 18,100 1,574 Climbing FlightAware ADS-B
Sun 09:13:43 PM 41.2340 -73.3281 44° Northeast 417 480 18,900 1,524 Climbing FlightAware ADS-B
Sun 09:14:15 PM 41.2794 -73.2698 44° Northeast 422 486 19,700 1,500 Climbing FlightAware ADS-B
Sun 09:14:47 PM 41.3238 -73.2125 44° Northeast 425 489 20,500 1,429 Climbing FlightAware ADS-B
Sun 09:15:18 PM 41.3665 -73.1558 45° Northeast 427 491 21,200 1,231 Climbing FlightAware ADS-B
Sun 09:15:26 PM 41.3778 -73.1380 50° Northeast 432 497 21,300 980 Climbing FlightAware ADS-B
Sun 09:16:07 PM 41.4229 -73.0464 57° Northeast 440 506 22,000 1,062 Climbing FlightAware ADS-B
Sun 09:17:19 PM 41.4981 -72.8742 60° Northeast 458 527 23,300 1,000 Climbing FlightAware ADS-B
Sun 09:18:07 PM 41.5450 -72.7670 60° Northeast 467 537 24,000 1,032 Climbing FlightAware ADS-B
Sun 09:18:52 PM 41.5970 -72.6500 59° Northeast 473 544 24,900 635 Climbing FlightAware ADS-B
Sun 09:19:32 PM 41.6370 -72.5590 60° Northeast 473 544 24,900 1,020 Level FlightAware ADS-B
Sun 09:20:32 PM 41.7080 -72.3990 59° Northeast 480 552 26,600 1,440 Climbing FlightAware ADS-B
Sun 09:21:12 PM 41.7540 -72.2970 59° Northeast 484 557 27,300 975 Climbing FlightAware ADS-B
Sun 09:21:52 PM 41.7990 -72.1960 59° Northeast 491 565 27,900 1,059 Climbing FlightAware ADS-B
Sun 09:22:37 PM 41.8570 -72.0710 58° Northeast 491 565 28,800 1,029 Climbing FlightAware ADS-B
Sun 09:23:02 PM 41.8910 -72.0200 48° Northeast 484 557 29,100 857 Climbing FlightAware ADS-B
Sun 09:23:47 PM 41.9770 -71.9340 37° Northeast 480 552 29,800 847 Climbing FlightAware ADS-B
Sun 09:24:27 PM 42.0510 -71.8670 34° Northeast 482 555 30,300 706 Climbing FlightAware ADS-B
Sun 09:25:12 PM 42.1320 -71.7950 33° Northeast 487 560 30,800 675 Climbing FlightAware ADS-B
Sun 09:25:47 PM 42.2000 -71.7330 34° Northeast 490 564 31,200 646 Climbing FlightAware ADS-B
Sun 09:26:17 PM 42.2580 -71.6800 34° Northeast 494 568 31,500 857 Climbing FlightAware ADS-B
Sun 09:26:57 PM 42.3320 -71.6130 34° Northeast 490 564 32,200 975 Climbing FlightAware ADS-B
Sun 09:27:37 PM 42.4080 -71.5430 34° Northeast 488 562 32,800 565 Climbing FlightAware ADS-B
Sun 09:28:22 PM 42.4900 -71.4680 34° Northeast 487 560 33,000 141 Climbing FlightAware ADS-B
Sun 09:29:02 PM 42.5630 -71.4010 34° Northeast 485 558 33,000  Level FlightAware ADS-B
Sun 09:29:42 PM 42.6380 -71.3310 34° Northeast 482 555 33,000  Level FlightAware ADS-B
Sun 09:30:27 PM 42.7240 -71.2530 34° Northeast 484 557 33,000  Level FlightAware ADS-B
Sun 09:31:07 PM 42.7990 -71.1830 34° Northeast 487 560 33,000  Level FlightAware ADS-B
Sun 09:31:52 PM 42.8790 -71.1080 34° Northeast 488 562 33,000  Level FlightAware ADS-B
Sun 09:32:37 PM 42.9650 -71.0280 34° Northeast 489 563 33,000  Level FlightAware ADS-B
Sun 09:33:17 PM 43.0400 -70.9570 35° Northeast 490 564 33,000  Level FlightAware ADS-B
Sun 09:34:02 PM 43.1220 -70.8810 34° Northeast 490 564 33,000  Level FlightAware ADS-B
Sun 09:34:42 PM 43.1970 -70.8100 35° Northeast 490 564 33,000  Level FlightAware ADS-B
Sun 09:35:22 PM 43.2720 -70.7390 35° Northeast 488 562 33,000  Level FlightAware ADS-B
Sun 09:35:57 PM 43.3370 -70.6770 35° Northeast 487 560 33,000  Level FlightAware ADS-B
Sun 09:36:32 PM 43.4010 -70.6170 34° Northeast 485 558 33,000  Level FlightAware ADS-B
Sun 09:37:17 PM 43.4860 -70.5350 35° Northeast 482 555 33,000  Level FlightAware ADS-B
Sun 09:37:57 PM 43.5580 -70.4660 35° Northeast 479 551 33,000  Level FlightAware ADS-B
Sun 09:38:37 PM 43.6300 -70.3970 35° Northeast 479 551 33,000  Level FlightAware ADS-B
Sun 09:39:22 PM 43.7100 -70.3200 35° Northeast 475 547 33,000  Level FlightAware ADS-B
Sun 09:39:57 PM 43.7750 -70.2570 35° Northeast 472 543 33,000  Level FlightAware ADS-B
Sun 09:40:37 PM 43.8470 -70.1880 35° Northeast 471 542 33,000  Level FlightAware ADS-B
Sun 09:41:22 PM 43.9250 -70.1120 35° Northeast 472 543 33,000  Level FlightAware ADS-B
Sun 09:42:02 PM 43.9970 -70.0420 35° Northeast 473 544 33,000  Level FlightAware ADS-B
Sun 09:42:37 PM 44.0600 -69.9810 35° Northeast 472 543 33,000  Level FlightAware ADS-B
Sun 09:43:22 PM 44.1340 -69.9080 35° Northeast 471 542 33,000  Level FlightAware ADS-B
Sun 09:44:02 PM 44.2090 -69.8340 35° Northeast 474 545 33,000  Level FlightAware ADS-B
Sun 09:44:57 PM 44.3000 -69.7450 35° Northeast 475 547 33,000  Level FlightAware ADS-B
Sun 09:45:47 PM 44.4000 -69.6450 36° Northeast 473 544 33,000  Level FlightAware ADS-B
Sun 09:46:22 PM 44.4580 -69.5870 36° Northeast 474 545 33,000  Level FlightAware ADS-B
Sun 09:47:07 PM 44.5420 -69.5040 35° Northeast 473 544 33,000  Level FlightAware ADS-B
Sun 09:47:52 PM 44.6210 -69.4250 35° Northeast 469 540 33,000  Level FlightAware ADS-B
Sun 09:48:32 PM 44.6910 -69.3540 36° Northeast 467 537 33,000  Level FlightAware ADS-B
Sun 09:49:17 PM 44.7710 -69.2730 36° Northeast 467 537 33,000  Level FlightAware ADS-B
Sun 09:49:57 PM 44.8410 -69.2030 35° Northeast 464 534 33,000  Level FlightAware ADS-B
Sun 09:50:42 PM 44.9180 -69.1250 36° Northeast 464 534 33,000  Level FlightAware ADS-B
Sun 09:51:22 PM 44.9880 -69.0540 36° Northeast 464 534 33,000  Level FlightAware ADS-B
Sun 09:52:02 PM 45.0570 -68.9830 36° Northeast 458 527 33,000  Level FlightAware ADS-B
Sun 09:52:47 PM 45.1350 -68.9040 36° Northeast 455 524 33,000  Level FlightAware ADS-B
Sun 09:53:27 PM 45.2020 -68.8340 36° Northeast 452 520 33,000  Level FlightAware ADS-B
Sun 09:54:07 PM 45.2710 -68.7630 36° Northeast 451 519 33,000  Level FlightAware ADS-B
Sun 09:54:52 PM 45.3450 -68.6870 36° Northeast 450 518 33,000  Level FlightAware ADS-B
Sun 09:55:32 PM 45.4110 -68.6180 36° Northeast 450 518 33,000  Level FlightAware ADS-B
Sun 09:56:12 PM 45.4800 -68.5470 36° Northeast 448 516 33,000  Level FlightAware ADS-B
Sun 09:56:57 PM 45.5560 -68.4680 36° Northeast 447 514 33,000  Level FlightAware ADS-B
Sun 09:57:42 PM 45.6190 -68.4020 36° Northeast 449 517 33,000  Level FlightAware ADS-B
Sun 09:58:37 PM 45.7150 -68.3010 36° Northeast 441 507 33,000  Level FlightAware ADS-B
Sun 09:59:47 PM 45.8320 -68.1780 36° Northeast 439 505 33,000  Level FlightAware ADS-B
Sun 10:00:57 PM 45.9470 -68.0550 37° Northeast 445 512 33,000  Level FlightAware ADS-B
Sun 10:02:07 PM 46.0660 -67.9290 36° Northeast 448 516 33,000  Level FlightAware ADS-B
Sun 10:03:22 PM 46.1860 -67.8000 37° Northeast 448 516 33,000  Level FlightAware ADS-B
Sun 10:04:12 PM 46.2730 -67.7070 36° Northeast 458 527 33,000  Level FlightAware ADS-B
Sun 10:04:52 PM 46.3320 -67.6460 36° Northeast 458 527 33,000  Level FlightAware ADS-B
Sun 10:05:32 PM 46.3900 -67.5840 36° Northeast 458 527 33,000  Level FlightAware ADS-B
Sun 10:06:12 PM 46.4480 -67.5230 36° Northeast 458 527 33,000  Level FlightAware ADS-B
Sun 10:07:02 PM 46.5210 -67.4460 36° Northeast 458 527 33,000  Level FlightAware ADS-B
Sun 10:07:42 PM 46.5790 -67.3840 36° Northeast 458 527 33,000  Level FlightAware ADS-B
Sun 10:08:22 PM 46.6380 -67.3230 35° Northeast 458 527 33,000  Level FlightAware ADS-B
Sun 10:09:02 PM 46.6960 -67.2610 36° Northeast 458 527 33,000  Level FlightAware ADS-B
Sun 10:09:42 PM 46.7540 -67.1990 36° Northeast 458 527 33,000  Level FlightAware ADS-B
Sun 10:10:32 PM 46.8270 -67.1220 36° Northeast 458 527 33,000  Level FlightAware ADS-B
Sun 10:11:12 PM 46.8850 -67.0600 36° Northeast 458 527 33,000  Level FlightAware ADS-B
Sun 10:11:52 PM 46.9440 -66.9980 36° Northeast 458 527 33,000  Level FlightAware ADS-B
Sun 10:12:32 PM 47.0020 -66.9360 36° Northeast 458 527 33,000  Level FlightAware ADS-B
Sun 10:13:12 PM 47.0600 -66.8740 36° Northeast 458 527 33,000  Level FlightAware ADS-B
Sun 10:13:49 PM 47.2667 -66.7000 36° Northeast 460 529 33,000  Level Gander Center
Sun 10:14:49 PM 47.3667 -66.5833 38° Northeast 460 529 33,000  Level Gander Center
Sun 10:15:49 PM 47.4833 -66.4667 34° Northeast 460 529 33,000  Level Gander Center
Sun 10:16:49 PM 47.5833 -66.3833 29° Northeast 460 529 33,000  Level Gander Center
Sun 10:17:49 PM 47.7000 -66.2667 34° Northeast 460 529 33,000  Level Gander Center
Sun 10:18:49 PM 47.8000 -66.1833 29° Northeast 460 529 33,000  Level Gander Center
Sun 10:19:49 PM 47.9167 -66.0667 34° Northeast 460 529 33,000  Level Gander Center
Sun 10:20:49 PM 48.0167 -65.9833 29° Northeast 460 529 33,000  Level Gander Center
Sun 10:21:49 PM 48.1333 -65.8667 34° Northeast 470 541 33,000  Level Gander Center
Sun 10:22:49 PM 48.2500 -65.7500 34° Northeast 460 529 33,000  Level Gander Center
Sun 10:23:49 PM 48.3500 -65.6500 34° Northeast 470 541 33,000  Level Gander Center
Sun 10:24:49 PM 48.4500 -65.5333 38° Northeast 460 529 33,000  Level Gander Center
Sun 10:25:49 PM 48.5500 -65.4500 29° Northeast 470 541 33,000  Level Gander Center
Sun 10:26:49 PM 48.6833 -65.3333 30° Northeast 470 541 33,000  Level Gander Center
Sun 10:27:49 PM 48.7833 -65.2167 38° Northeast 470 541 33,000  Level Gander Center
Sun 10:28:49 PM 48.8833 -65.1000 37° Northeast 470 541 33,000  Level Gander Center
Sun 10:29:49 PM 48.9833 -65.0000 33° Northeast 470 541 33,000  Level Gander Center
Sun 10:30:49 PM 49.1167 -64.8833 30° Northeast 470 541 33,000  Level Gander Center
Sun 10:31:49 PM 49.2167 -64.7667 37° Northeast 470 541 33,000  Level Gander Center
Sun 10:32:49 PM 49.3167 -64.6667 33° Northeast 470 541 33,000  Level Gander Center
Sun 10:33:49 PM 49.4167 -64.5500 37° Northeast 470 541 33,000  Level Gander Center
Sun 10:34:49 PM 49.5333 -64.4333 33° Northeast 470 541 33,000  Level Gander Center
Sun 10:35:49 PM 49.6500 -64.3333 29° Northeast 470 541 33,000  Level Gander Center
Sun 10:36:49 PM 49.7500 -64.2000 41° Northeast 470 541 33,000  Level Gander Center
Sun 10:37:49 PM 49.8667 -64.0833 33° Northeast 470 541 33,000  Level Gander Center
Sun 10:38:49 PM 49.9667 -63.9833 33° Northeast 470 541 33,000  Level Gander Center
Sun 10:39:49 PM 50.0667 -63.8667 37° Northeast 460 529 33,000  Level Gander Center
Sun 10:40:49 PM 50.1833 -63.7667 29° Northeast 470 541 33,000  Level Gander Center
Sun 10:41:49 PM 50.3000 -63.6333 36° Northeast 470 541 33,000  Level Gander Center
Sun 10:42:49 PM 50.4000 -63.5167 37° Northeast 470 541 33,000  Level Gander Center
Sun 10:43:49 PM 50.5000 -63.3833 40° Northeast 470 541 33,000  Level Gander Center
Sun 10:44:49 PM 50.6000 -63.2833 32° Northeast 470 541 33,000  Level Gander Center
Sun 10:45:49 PM 50.7000 -63.1500 40° Northeast 470 541 33,000  Level Gander Center
Sun 10:46:49 PM 50.8000 -63.0500 32° Northeast 470 541 33,000  Level Gander Center
Sun 10:47:49 PM 50.9333 -62.9333 29° Northeast 470 541 33,000  Level Gander Center
Sun 10:48:49 PM 51.0333 -62.8000 40° Northeast 470 541 33,000  Level Gander Center
Sun 10:49:49 PM 51.1333 -62.7000 32° Northeast 470 541 33,000  Level Gander Center
Sun 10:50:49 PM 51.2333 -62.5667 40° Northeast 460 529 33,000  Level Gander Center
Sun 10:51:49 PM 51.3500 -62.4333 36° Northeast 470 541 33,000  Level Gander Center
Sun 10:52:49 PM 51.4500 -62.3333 32° Northeast 470 541 33,000  Level Gander Center
Sun 10:53:49 PM 51.5667 -62.2000 35° Northeast 470 541 33,000  Level Gander Center
Sun 10:54:49 PM 51.6667 -62.0667 40° Northeast 470 541 33,000  Level Gander Center
Sun 10:55:49 PM 51.7667 -61.9333 40° Northeast 470 541 33,000  Level Gander Center
Sun 10:56:49 PM 51.8667 -61.8167 36° Northeast 480 552 33,000  Level Gander Center
Sun 10:57:49 PM 51.9833 -61.6833 35° Northeast 480 552 33,000  Level Gander Center
Sun 10:58:49 PM 52.1000 -61.5500 35° Northeast 480 552 33,000  Level Gander Center
Sun 10:59:49 PM 52.2000 -61.4500 31° Northeast 480 552 33,000  Level Gander Center
Sun 11:00:49 PM 52.3167 -61.3167 35° Northeast 480 552 33,000  Level Gander Center
Sun 11:01:49 PM 52.4167 -61.1667 42° Northeast 480 552 33,000  Level Gander Center
Sun 11:02:49 PM 52.5333 -61.0333 35° Northeast 480 552 33,000  Level Gander Center
Sun 11:03:49 PM 52.6333 -60.9000 39° Northeast 480 552 33,000  Level Gander Center
Sun 11:04:49 PM 52.7500 -60.7500 38° Northeast 480 552 33,000  Level Gander Center
Sun 11:05:49 PM 52.8500 -60.6500 31° Northeast 480 552 33,000  Level Gander Center
Sun 11:06:49 PM 52.9500 -60.5000 42° Northeast 480 552 33,000  Level Gander Center
Sun 11:07:49 PM 53.0500 -60.3667 39° Northeast 490 564 33,000  Level Gander Center
Sun 11:08:49 PM 53.1500 -60.2167 42° Northeast 490 564 33,000  Level Gander Center
Sun 11:09:49 PM 53.2667 -60.0833 34° Northeast 490 564 33,000  Level Gander Center
Sun 11:10:49 PM 53.3667 -59.9667 35° Northeast 490 564 33,000  Level Gander Center
Sun 11:11:49 PM 53.4833 -59.8000 40° Northeast 490 564 33,000  Level Gander Center
Sun 11:12:49 PM 53.5833 -59.6833 35° Northeast 490 564 33,000  Level Gander Center
Sun 11:13:49 PM 53.7000 -59.5333 37° Northeast 490 564 33,000  Level Gander Center
Sun 11:14:49 PM 53.8167 -59.3833 37° Northeast 490 564 33,000  Level Gander Center
Sun 11:15:49 PM 53.9167 -59.2333 41° Northeast 490 564 33,000  Level Gander Center
Sun 11:16:49 PM 54.0333 -59.0833 37° Northeast 490 564 33,000  Level Gander Center
Sun 11:17:49 PM 54.1500 -58.9500 34° Northeast 490 564 33,000  Level Gander Center
Sun 11:18:49 PM 54.2333 -58.8000 46° Northeast 490 564 33,000  Level Gander Center
Sun 11:19:49 PM 54.3500 -58.6500 37° Northeast 490 564 33,000  Level Gander Center
Sun 11:20:49 PM 54.4500 -58.5000 41° Northeast 500 575 33,000  Level Gander Center
Sun 11:21:49 PM 54.5667 -58.3500 37° Northeast 500 575 33,000  Level Gander Center
Sun 11:22:49 PM 54.6833 -58.1833 40° Northeast 500 575 33,000  Level Gander Center
Sun 11:23:49 PM 54.7667 -58.0667 39° Northeast 500 575 33,000  Level Gander Center
Sun 11:24:49 PM 54.8833 -57.8833 42° Northeast 500 575 33,000  Level Gander Center
Sun 11:25:49 PM 54.9833 -57.7500 37° Northeast 500 575 33,000  Level Gander Center
Sun 11:26:49 PM 55.1000 -57.5667 42° Northeast 500 575 33,000  Level Gander Center
Sun 11:27:49 PM 55.2167 -57.4500 30° Northeast 500 575 33,000  Level Gander Center
Sun 11:28:49 PM 55.3167 -57.2667 46° Northeast 500 575 33,000  Level Gander Center
Sun 11:29:49 PM 55.4167 -57.1333 37° Northeast 500 575 33,000  Level Gander Center
Sun 11:30:49 PM 55.5167 -56.9667 43° Northeast 500 575 33,000  Level Gander Center
Sun 11:31:49 PM 55.6000 -56.7500 56° Northeast 500 575 33,000  Level Gander Center
Sun 11:32:49 PM 55.6833 -56.5333 56° Northeast 500 575 33,000  Level Gander Center
Sun 11:33:49 PM 55.7667 -56.3500 51° Northeast 500 575 33,000  Level Gander Center
Sun 11:34:49 PM 55.8500 -56.1667 51° Northeast 500 575 33,000  Level Gander Center
Sun 11:35:49 PM 55.9167 -55.9500 61° Northeast 510 587 33,000  Level Gander Center
Sun 11:36:49 PM 56.0167 -55.7167 52° Northeast 510 587 33,000  Level Gander Center
Sun 11:37:49 PM 56.0833 -55.5000 61° Northeast 510 587 33,000  Level Gander Center
Sun 11:38:49 PM 56.1667 -55.3167 51° Northeast 520 598 33,000  Level Gander Center
Sun 11:39:49 PM 56.2500 -55.0833 57° Northeast 520 598 33,000  Level Gander Center
Sun 11:40:49 PM 56.3167 -54.8333 64° Northeast 520 598 33,000  Level Gander Center
Sun 11:41:42 PM 56.4000 -54.7000 41° Northeast 520 598 33,000  Level Gander Center
Sun 11:42:42 PM 56.4667 -54.5000 59° Northeast 510 587 33,000  Level Gander Center
Sun 11:43:42 PM 56.5667 -54.2500 54° Northeast 520 598 33,000  Level Gander Center
Sun 11:44:42 PM 56.6333 -54.0167 62° Northeast 520 598 33,000  Level Gander Center
Sun 11:45:42 PM 56.7167 -53.8500 48° Northeast 520 598 33,000  Level Gander Center
Sun 11:46:42 PM 56.8000 -53.5833 60° Northeast 520 598 33,000  Level Gander Center
Sun 11:47:42 PM 56.8667 -53.3667 61° Northeast 520 598 33,000  Level Gander Center
Sun 11:48:42 PM 56.9500 -53.1667 53° Northeast 520 598 33,000  Level Gander Center
Sun 11:49:42 PM 57.0167 -52.9000 65° Northeast 380 437 33,000  Level Gander Center
Sun 11:50:23 PM 57.0667 -52.8333 36° Northeast 390 449 33,000  Level Gander Center
Sun 11:52:00 PM 57.2018 -52.5338 50° Northeast  Level Estimated
Sun 11:59:00 PM 57.7783 -51.2113 50° Northeast  Level Estimated
Mon 12:00:00 AM 57.8595 -51.0189 52° Northeast  Level Estimated
Mon 12:00:29 AM 57.8500 -50.4167 52° Northeast 530 610 33,000  Level Gander Center
Mon 12:01:00 AM 57.9404 -50.8257 52° Northeast  Level Estimated
Mon 12:01:29 AM 57.9167 -50.1667 63° Northeast 530 610 33,000  Level Gander Center
Mon 12:02:00 AM 58.0211 -50.6316 52° Northeast  Level Estimated
Mon 12:02:29 AM 58.0000 -49.9167 58° Northeast 530 610 33,000  Level Gander Center
Mon 12:03:00 AM 58.1014 -50.4366 52° Northeast  Level Estimated
Mon 12:03:29 AM 58.0667 -49.6833 62° Northeast 530 610 33,000  Level Gander Center
Mon 12:04:00 AM 58.1815 -50.2408 52° Northeast  Level Estimated
Mon 12:04:29 AM 58.1167 -49.4333 69° East 540 621 33,000  Level Gander Center
Mon 12:05:00 AM 58.2612 -50.0441 52° Northeast  Level Estimated
Mon 12:05:29 AM 58.1833 -49.1667 65° Northeast 530 610 33,000  Level Gander Center
Mon 12:06:29 AM 58.2500 -48.9167 63° Northeast 540 621 33,000  Level Gander Center
Mon 12:07:29 AM 58.3000 -48.6667 69° East 540 621 33,000  Level Gander Center
Mon 12:08:29 AM 58.3667 -48.4000 64° Northeast 540 621 33,000  Level Gander Center
Mon 12:09:29 AM 58.4167 -48.1500 69° East 540 621 33,000  Level Gander Center
Mon 12:10:29 AM 58.5000 -47.8667 61° Northeast 540 621 33,000  Level Gander Center
Mon 12:11:29 AM 58.5500 -47.6167 69° East 540 621 33,000  Level Gander Center
Mon 12:12:29 AM 58.6167 -47.3333 66° East 540 621 33,000  Level Gander Center
Mon 12:13:29 AM 58.6667 -47.0833 69° East 540 621 33,000  Level Gander Center
Mon 12:14:29 AM 58.7333 -46.8333 63° Northeast 540 621 33,000  Level Gander Center
Mon 12:15:29 AM 58.7833 -46.5500 71° East 540 621 33,000  Level Gander Center
Mon 12:16:29 AM 58.8333 -46.3000 69° East 550 633 33,000  Level Gander Center
Mon 12:17:29 AM 58.9000 -46.0000 67° East 550 633 33,000  Level Gander Center
Mon 12:18:29 AM 58.9667 -45.7500 63° Northeast 550 633 33,000  Level Gander Center
Mon 12:19:29 AM 59.0167 -45.4667 71° East 550 633 33,000  Level Gander Center
Mon 12:20:29 AM 59.0667 -45.2000 70° East 550 633 33,000  Level Gander Center
Mon 12:21:29 AM 59.1167 -44.9167 71° East 550 633 33,000  Level Gander Center
Mon 12:22:29 AM 59.1667 -44.6667 69° East 550 633 33,000  Level Gander Center
Mon 12:23:29 AM 59.2333 -44.3667 66° East 550 633 33,000  Level Gander Center
Mon 12:24:29 AM 59.2833 -44.1000 70° East 550 633 33,000  Level Gander Center
Mon 12:25:29 AM 59.3333 -43.8167 71° East 550 633 33,000  Level Gander Center
Mon 12:26:29 AM 59.3833 -43.5167 72° East 550 633 33,000  Level Gander Center
Mon 12:27:29 AM 59.4500 -43.2500 64° Northeast 550 633 33,000  Level Gander Center
Mon 12:28:29 AM 59.4833 -42.9667 77° East 550 633 33,000  Level Gander Center
Mon 12:29:29 AM 59.5333 -42.7000 70° East 550 633 33,000  Level Gander Center
Mon 12:30:29 AM 59.5833 -42.4000 72° East 550 633 33,000  Level Gander Center
Mon 12:31:29 AM 59.6333 -42.1333 70° East 550 633 33,000  Level Gander Center
Mon 12:32:29 AM 59.6833 -41.8333 72° East 550 633 33,000  Level Gander Center
Mon 12:33:29 AM 59.7333 -41.5667 69° East 550 633 33,000  Level Gander Center
Mon 12:34:29 AM 59.7833 -41.2667 72° East 550 633 33,000  Level Gander Center
Mon 12:35:29 AM 59.8167 -41.0000 76° East 540 621 33,000  Level Gander Center
Mon 12:36:29 AM 59.8667 -40.7000 72° East 540 621 33,000  Level Gander Center
Mon 12:37:29 AM 59.9000 -40.4333 76° East 540 621 33,000  Level Gander Center
Mon 12:38:29 AM 59.9500 -40.1333 71° East 540 621 33,000  Level Gander Center
Mon 12:39:29 AM 59.9833 -39.8667 76° East 540 621 33,000  Level Gander Center
Mon 12:40:29 AM 60.0333 -39.5667 71° East 540 621 33,000  Level Gander Center
Mon 12:41:29 AM 60.0667 -39.3000 76° East 540 621 33,000  Level Gander Center
Mon 12:42:29 AM 60.1000 -39.0000 77° East 540 621 33,000  Level Gander Center
Mon 12:43:29 AM 60.1500 -38.7167 70° East 540 621 33,000  Level Gander Center
Mon 12:44:29 AM 60.1833 -38.4167 77° East 540 621 33,000  Level Gander Center
Mon 12:45:29 AM 60.2167 -38.1167 77° East 550 633 33,000  Level Gander Center
Mon 12:46:29 AM 60.2500 -37.8500 76° East 550 633 33,000  Level Gander Center
Mon 12:47:29 AM 60.3000 -37.5333 72° East 550 633 33,000  Level Gander Center
Mon 12:49:29 AM 60.3667 -36.9500 77° East 550 633 33,000  Level Gander Center
Mon 12:50:29 AM 60.4000 -36.6333 78° East 550 633 33,000  Level Gander Center
Mon 12:51:29 AM 60.4333 -36.3667 76° East 550 633 33,000  Level Gander Center
Mon 12:52:29 AM 60.4667 -36.0500 78° East 550 633 33,000  Level Gander Center
Mon 12:53:29 AM 60.5000 -35.7500 77° East 550 633 33,000  Level Gander Center
Mon 12:54:29 AM 60.5333 -35.4667 76° East 550 633 33,000  Level Gander Center
Mon 12:56:06 AM 60.5833 -35.0000 78° East 550 633 33,000  Level Gander Center
Mon 12:58:00 AM 60.6865 -34.5379 65° Northeast  Level Estimated
Mon 01:05:00 AM 61.0525 -32.8100 66° East  Level Estimated
Mon 01:06:00 AM 61.1030 -32.5599 67° East  Level Estimated
Mon 01:07:00 AM 61.1530 -32.3091 67° East  Level Estimated
Mon 01:08:00 AM 61.2025 -32.0574 68° East  Level Estimated
Mon 01:09:00 AM 61.2516 -31.8050 68° East  Level Estimated
Mon 01:10:00 AM 61.3002 -31.5518 68° East  Level Estimated
Mon 01:11:00 AM 61.3484 -31.2978 68° East  Level Estimated
Mon 01:12:00 AM 61.3960 -31.0430 69° East  Level Estimated
Mon 01:13:00 AM 61.4432 -30.7874 69° East  Level Estimated
Mon 01:14:00 AM 61.4899 -30.5311 69° East  Level Estimated
Mon 01:15:00 AM 61.5361 -30.2740 69° East  Level Estimated
Mon 01:16:00 AM 61.5818 -30.0161 69° East  Level Estimated
Mon 01:17:00 AM 61.6271 -29.7575 70° East  Level Estimated
Mon 01:18:00 AM 61.6718 -29.4982 70° East  Level Estimated
Mon 01:19:00 AM 61.7161 -29.2381 70° East  Level Estimated
Mon 01:20:00 AM 61.7598 -28.9772 70° East  Level Estimated
Mon 01:21:00 AM 61.8031 -28.7156 71° East  Level Estimated
Mon 01:22:00 AM 61.8459 -28.4533 71° East  Level Estimated
Mon 01:23:00 AM 61.8881 -28.1902 71° East  Level Estimated
Mon 01:24:00 AM 61.9299 -27.9264 71° East  Level Estimated
Mon 01:24:52 AM 61.4350 -26.5600 71° East 524 603 33,000  Level FlightAware ADS-B
Mon 01:25:32 AM 61.4550 -26.3740 77° East 522 601 33,000  Level FlightAware ADS-B
Mon 01:26:12 AM 61.4770 -26.1750 77° East 520 598 33,000  Level FlightAware ADS-B
Mon 01:26:57 AM 61.5020 -25.9490 77° East 518 596 33,000  Level FlightAware ADS-B
Mon 01:27:42 AM 61.5240 -25.7350 78° East 517 595 33,000  Level FlightAware ADS-B
Mon 01:28:22 AM 61.5450 -25.5390 77° East 518 596 33,000  Level FlightAware ADS-B
Mon 01:29:07 AM 61.5670 -25.3210 78° East 519 597 33,000  Level FlightAware ADS-B
Mon 01:29:47 AM 61.5870 -25.1290 78° East 519 597 33,000  Level FlightAware ADS-B
Mon 01:30:27 AM 61.6050 -24.9500 78° East 519 597 33,000  Level FlightAware ADS-B
Mon 01:31:07 AM 61.6220 -24.7820 78° East 519 597 33,000  Level FlightAware ADS-B
Mon 01:31:52 AM 61.6480 -24.5020 79° East 519 597 33,000  Level FlightAware ADS-B
Mon 01:32:37 AM 61.6680 -24.2890 79° East 518 596 33,000  Level FlightAware ADS-B
Mon 01:33:17 AM 61.6870 -24.0910 78° East 518 596 33,000  Level FlightAware ADS-B
Mon 01:33:57 AM 61.7050 -23.8910 79° East 519 597 33,000  Level FlightAware ADS-B
Mon 01:34:42 AM 61.7260 -23.6610 79° East 522 601 33,000  Level FlightAware ADS-B
Mon 01:35:22 AM 61.7440 -23.4590 79° East 526 605 33,000  Level FlightAware ADS-B
Mon 01:36:12 AM 61.7640 -23.2320 79° East 527 606 33,000  Level FlightAware ADS-B
Mon 01:36:52 AM 61.7800 -23.0600 79° East 527 606 33,000  Level FlightAware ADS-B
Mon 01:37:42 AM 61.8030 -22.7540 81° East 526 605 33,000  Level FlightAware ADS-B
Mon 01:38:22 AM 61.8200 -22.5540 80° East 525 604 33,000  Level FlightAware ADS-B
Mon 01:39:07 AM 61.8370 -22.3290 81° East 526 605 33,000  Level FlightAware ADS-B
Mon 01:39:47 AM 61.8530 -22.1250 80° East 524 603 33,000  Level FlightAware ADS-B
Mon 01:40:32 AM 61.8710 -21.8930 81° East 523 602 33,000  Level FlightAware ADS-B
Mon 01:41:12 AM 61.8860 -21.6950 81° East 524 603 33,000  Level FlightAware ADS-B
Mon 01:41:52 AM 61.9010 -21.4910 81° East 525 604 33,000  Level FlightAware ADS-B
Mon 01:42:37 AM 61.9170 -21.2640 81° East 524 603 33,000  Level FlightAware ADS-B
Mon 01:43:17 AM 61.9310 -21.0630 81° East 524 603 33,000  Level FlightAware ADS-B
Mon 01:43:57 AM 61.9450 -20.8590 82° East 523 602 33,000  Level FlightAware ADS-B
Mon 01:44:42 AM 61.9600 -20.6260 82° East 523 602 33,000  Level FlightAware ADS-B
Mon 01:45:22 AM 61.9730 -20.4270 82° East 524 603 33,000  Level FlightAware ADS-B
Mon 01:46:07 AM 61.9880 -20.2020 82° East 524 603 33,000  Level FlightAware ADS-B
Mon 01:46:47 AM 62.0030 -19.9970 81° East 522 601 33,000  Level FlightAware ADS-B
Mon 01:47:32 AM 62.0320 -19.7710 75° East 518 596 33,000  Level FlightAware ADS-B
Mon 01:48:12 AM 62.0580 -19.5770 74° East 517 595 33,000  Level FlightAware ADS-B
Mon 01:48:52 AM 62.0850 -19.3800 74° East 519 597 33,000  Level FlightAware ADS-B
Mon 01:49:32 AM 62.1110 -19.1870 74° East 520 598 33,000  Level FlightAware ADS-B
Mon 01:50:17 AM 62.1400 -18.9690 74° East 522 601 33,000  Level FlightAware ADS-B
Mon 01:50:57 AM 62.1660 -18.7670 75° East 520 598 33,000  Level FlightAware ADS-B
Mon 01:51:42 AM 62.1960 -18.5420 74° East 522 601 33,000  Level FlightAware ADS-B
Mon 01:52:22 AM 62.2210 -18.3430 75° East 520 598 33,000  Level FlightAware ADS-B
Mon 01:53:02 AM 62.2460 -18.1450 75° East 519 597 33,000  Level FlightAware ADS-B
Mon 01:53:47 AM 62.2730 -17.9250 75° East 520 598 33,000  Level FlightAware ADS-B
Mon 01:54:27 AM 62.2970 -17.7250 75° East 518 596 33,000  Level FlightAware ADS-B
Mon 01:55:12 AM 62.3250 -17.4960 75° East 516 594 33,000  Level FlightAware ADS-B
Mon 01:55:52 AM 62.3470 -17.3050 76° East 512 589 33,000  Level FlightAware ADS-B
Mon 01:56:32 AM 62.3710 -17.1070 75° East 513 590 33,000  Level FlightAware ADS-B
Mon 01:57:17 AM 62.3960 -16.8850 76° East 512 589 33,000  Level FlightAware ADS-B
Mon 01:57:57 AM 62.4190 -16.6840 76° East 514 592 33,000  Level FlightAware ADS-B
Mon 01:58:42 AM 62.4440 -16.4640 76° East 512 589 33,000  Level FlightAware ADS-B
Mon 01:59:22 AM 62.4660 -16.2650 76° East 511 588 33,000  Level FlightAware ADS-B
Mon 02:00:07 AM 62.4900 -16.0400 77° East 513 590 33,000  Level FlightAware ADS-B
Mon 02:00:47 AM 62.5120 -15.8390 77° East 515 593 33,000  Level FlightAware ADS-B
Mon 02:01:27 AM 62.5330 -15.6380 77° East 515 593 33,000  Level FlightAware ADS-B
Mon 02:02:12 AM 62.5560 -15.4100 78° East 516 594 33,000  Level FlightAware ADS-B
Mon 02:02:52 AM 62.5760 -15.2130 77° East 516 594 33,000  Level FlightAware ADS-B
Mon 02:03:37 AM 62.6000 -14.9830 77° East 517 595 33,000  Level FlightAware ADS-B
Mon 02:04:17 AM 62.6200 -14.7800 78° East 516 594 33,000  Level FlightAware ADS-B
Mon 02:04:57 AM 62.6390 -14.5780 78° East 516 594 33,000  Level FlightAware ADS-B
Mon 02:05:42 AM 62.6600 -14.3540 78° East 513 590 33,000  Level FlightAware ADS-B
Mon 02:06:22 AM 62.6800 -14.1450 78° East 512 589 33,000  Level FlightAware ADS-B
Mon 02:07:02 AM 62.6980 -13.9460 79° East 502 578 33,000  Level FlightAware ADS-B
Mon 02:07:47 AM 62.7180 -13.7300 78° East 503 579 33,000  Level FlightAware ADS-B
Mon 02:08:27 AM 62.7360 -13.5300 79° East 500 575 33,000  Level FlightAware ADS-B
Mon 02:09:12 AM 62.7550 -13.3030 80° East 500 575 33,000  Level FlightAware ADS-B
Mon 02:09:52 AM 62.7730 -13.1040 79° East 503 579 33,000  Level FlightAware ADS-B
Mon 02:10:37 AM 62.7910 -12.8830 80° East 506 582 33,000  Level FlightAware ADS-B
Mon 02:11:17 AM 62.8080 -12.6800 80° East 506 582 33,000  Level FlightAware ADS-B
Mon 02:12:02 AM 62.8260 -12.4540 80° East 505 581 33,000  Level FlightAware ADS-B
Mon 02:12:42 AM 62.8420 -12.2520 80° East 502 578 33,000  Level FlightAware ADS-B
Mon 02:13:22 AM 62.8570 -12.0610 80° East 501 577 33,000  Level FlightAware ADS-B
Mon 02:14:07 AM 62.8740 -11.8320 81° East 498 573 33,000  Level FlightAware ADS-B
Mon 02:14:47 AM 62.8890 -11.6310 81° East 498 573 33,000  Level FlightAware ADS-B
Mon 02:15:32 AM 62.9060 -11.4060 80° East 502 578 33,000  Level FlightAware ADS-B
Mon 02:16:12 AM 62.9200 -11.2150 81° East 503 579 33,000  Level FlightAware ADS-B
Mon 02:16:52 AM 62.9340 -11.0030 82° East 501 577 33,000  Level FlightAware ADS-B
Mon 02:17:37 AM 62.9500 -10.7790 81° East 503 579 33,000  Level FlightAware ADS-B
Mon 02:18:17 AM 62.9630 -10.5820 82° East 504 580 33,000  Level FlightAware ADS-B
Mon 02:18:57 AM 62.9760 -10.3770 82° East 505 581 33,000  Level FlightAware ADS-B
Mon 02:19:52 AM 62.9930 -10.1070 82° East 505 581 33,000  Level FlightAware ADS-B
Mon 02:20:32 AM 63.0040 -9.9340 82° East 505 581 33,000  Level FlightAware ADS-B
Mon 02:21:17 AM 63.0120 -9.6630 86° East 505 581 33,000  Level FlightAware ADS-B
Mon 02:22:02 AM 63.0190 -9.4290 86° East 504 580 33,000  Level FlightAware ADS-B
Mon 02:22:52 AM 63.0270 -9.1900 86° East 505 581 33,000  Level FlightAware ADS-B
Mon 02:23:42 AM 63.0330 -8.9720 86° East 505 581 33,000  Level FlightAware ADS-B
Mon 02:24:22 AM 63.0390 -8.7970 86° East 505 581 33,000  Level FlightAware ADS-B
Mon 02:25:02 AM 63.0450 -8.6220 86° East 505 581 33,000  Level FlightAware ADS-B
Mon 02:25:42 AM 63.0500 -8.4470 86° East 505 581 33,000  Level FlightAware ADS-B
Mon 02:26:22 AM 63.0560 -8.2720 86° East 505 581 33,000  Level FlightAware ADS-B
Mon 02:27:02 AM 63.0610 -8.0970 86° East 505 581 33,000  Level FlightAware ADS-B
Mon 02:27:52 AM 63.0680 -7.8790 86° East 505 581 33,000  Level FlightAware ADS-B
Mon 02:28:32 AM 63.0730 -7.7040 86° East 505 581 33,000  Level FlightAware ADS-B
Mon 02:29:12 AM 63.0790 -7.5290 86° East 505 581 33,000  Level FlightAware ADS-B
Mon 02:30:02 AM 63.0860 -7.3100 86° East 505 581 33,000  Level FlightAware ADS-B
Mon 02:30:42 AM 63.0910 -7.1350 86° East 505 581 33,000  Level FlightAware ADS-B
Mon 02:31:22 AM 63.0970 -6.9600 86° East 505 581 33,000  Level FlightAware ADS-B
Mon 02:32:02 AM 63.1020 -6.7850 86° East 505 581 33,000 Level FlightAware ADS-B
Mon 02:34:00 AM 63.0999 -6.2140 90° East  Level Estimated
Mon 02:35:00 AM 63.0979 -5.9238 91° East  Level Estimated
Mon 02:36:00 AM 63.0954 -5.6336 91° East  Level Estimated
Mon 02:37:00 AM 63.0923 -5.3434 91° East  Level Estimated
Mon 02:38:00 AM 63.0886 -5.0533 91° East  Level Estimated
Mon 02:39:00 AM 63.0842 -4.7633 92° East  Level Estimated
Mon 02:40:00 AM 63.0793 -4.4733 92° East  Level Estimated
Mon 02:41:00 AM 63.0738 -4.1835 92° East  Level Estimated
Mon 02:42:00 AM 63.0677 -3.8938 93° East  Level Estimated
Mon 02:43:00 AM 63.0610 -3.6042 93° East  Level Estimated
Mon 02:44:00 AM 63.0537 -3.3148 93° East  Level Estimated
Mon 02:45:00 AM 63.0459 -3.0255 93° East  Level Estimated
Mon 02:46:00 AM 63.0374 -2.7364 94° East  Level Estimated
Mon 02:47:00 AM 63.0284 -2.4474 94° East  Level Estimated
Mon 02:48:00 AM 63.0187 -2.1586 94° East  Level Estimated
Mon 02:49:00 AM 63.0085 -1.8700 94° East  Level Estimated
Mon 02:50:00 AM 62.9977 -1.5817 95° East  Level Estimated
Mon 02:51:00 AM 62.9863 -1.2935 95° East  Level Estimated
Mon 02:52:00 AM 62.9743 -1.0056 95° East  Level Estimated
Mon 02:53:00 AM 62.9618 -0.7179 95° East  Level Estimated
Mon 02:54:00 AM 62.9486 -0.4305 96° East  Level Estimated
Mon 02:55:00 AM 62.9349 -0.1434 96° East  Level Estimated
Mon 02:56:00 AM 62.9205 0.1435 96° East  Level Estimated
Mon 02:57:00 AM 62.9056 0.4301 96° East  Level Estimated
Mon 02:58:00 AM 62.8902 0.7164 97° East  Level Estimated
Mon 02:59:00 AM 62.8741 1.0024 97° East  Level Estimated
Mon 03:00:00 AM 62.8575 1.2881 97° East  Level Estimated
Mon 03:01:00 AM 62.8402 1.5734 97° East  Level Estimated
Mon 03:02:00 AM 62.8224 1.8585 98° East  Level Estimated
Mon 03:03:00 AM 62.8041 2.1431 98° East  Level Estimated
Mon 03:04:00 AM 62.7851 2.4274 98° East  Level Estimated
Mon 03:04:42 AM 63.2070 3.5990 98° East 506 582 33,300  Level FlightAware ADS-B
Mon 03:05:00 AM 62.7656 2.7113 98° East  Level Estimated
Mon 03:05:42 AM 63.2190 3.8820 84° East 509 586 34,200  Level FlightAware ADS-B
Mon 03:06:32 AM 63.2320 4.1760 84° East 514 592 35,000 884 Climbing FlightAware ADS-B
Mon 03:07:17 AM 63.2400 4.3950 85° East 514 592 35,600 821 Climbing FlightAware ADS-B
Mon 03:08:07 AM 63.2500 4.6440 85° East 515 593 36,300 800 Climbing FlightAware ADS-B
Mon 03:09:02 AM 63.2600 4.9190 85° East 511 588 37,000 400 Climbing FlightAware ADS-B
Mon 03:09:52 AM 63.2690 5.2060 86° East 509 586 37,000  Level FlightAware ADS-B
Mon 03:10:32 AM 63.2760 5.4080 86° East 510 587 37,000  Level FlightAware ADS-B
Mon 03:11:17 AM 63.2830 5.6370 86° East 512 589 37,000  Level FlightAware ADS-B
Mon 03:11:57 AM 63.2890 5.8460 86° East 514 592 37,000  Level FlightAware ADS-B
Mon 03:12:47 AM 63.2910 6.1210 89° East 512 589 37,000  Level FlightAware ADS-B
Mon 03:13:37 AM 63.2880 6.3780 91° East 514 592 37,000  Level FlightAware ADS-B
Mon 03:14:17 AM 63.2850 6.5870 92° East 513 590 37,000  Level FlightAware ADS-B
Mon 03:15:02 AM 63.2800 6.8350 92° East 514 592 37,000  Level FlightAware ADS-B
Mon 03:15:42 AM 63.2750 7.0490 93° East 515 593 37,000  Level FlightAware ADS-B
Mon 03:16:22 AM 63.2700 7.2630 93° East 516 594 37,000  Level FlightAware ADS-B
Mon 03:17:07 AM 63.2650 7.4940 93° East 516 594 37,000  Level FlightAware ADS-B
Mon 03:17:47 AM 63.2590 7.7080 93° East 516 594 37,000  Level FlightAware ADS-B
Mon 03:18:32 AM 63.2530 7.9420 93° East 514 592 37,000  Level FlightAware ADS-B
Mon 03:19:12 AM 63.2470 8.1540 94° East 513 590 37,000  Level FlightAware ADS-B
Mon 03:19:52 AM 63.2410 8.3610 94° East 512 589 37,000  Level FlightAware ADS-B
Mon 03:20:37 AM 63.2340 8.5900 94° East 512 589 37,000  Level FlightAware ADS-B
Mon 03:21:17 AM 63.2270 8.8000 94° East 509 586 37,000  Level FlightAware ADS-B
Mon 03:21:57 AM 63.2200 9.0160 94° East 507 583 37,000  Level FlightAware ADS-B
Mon 03:22:42 AM 63.2120 9.2420 94° East 507 583 37,000  Level FlightAware ADS-B
Mon 03:23:22 AM 63.2040 9.4510 95° East 509 586 37,000  Level FlightAware ADS-B
Mon 03:24:07 AM 63.1950 9.6830 95° East 512 589 37,000  Level FlightAware ADS-B
Mon 03:24:47 AM 63.1860 9.8950 95° East 514 592 37,000  Level FlightAware ADS-B
Mon 03:25:32 AM 63.1770 10.1230 95° East 514 592 37,000  Level FlightAware ADS-B
Mon 03:26:12 AM 63.1680 10.3330 95° East 512 589 37,000  Level FlightAware ADS-B
Mon 03:26:57 AM 63.1570 10.5590 96° East 509 586 37,000  Level FlightAware ADS-B
Mon 03:27:37 AM 63.1480 10.7720 95° East 509 586 37,000  Level FlightAware ADS-B
Mon 03:28:17 AM 63.1370 10.9790 97° East 508 585 37,000  Level FlightAware ADS-B
Mon 03:29:02 AM 63.1260 11.2020 96° East 508 585 37,000  Level FlightAware ADS-B
Mon 03:29:42 AM 63.1160 11.4140 96° East 513 590 37,000  Level FlightAware ADS-B
Mon 03:30:22 AM 63.1050 11.6170 97° East 510 587 37,000  Level FlightAware ADS-B
Mon 03:31:07 AM 63.0920 11.8460 97° East 508 585 37,000  Level FlightAware ADS-B
Mon 03:31:47 AM 63.0800 12.0700 97° East 505 581 37,000  Level FlightAware ADS-B
Mon 03:32:27 AM 63.0690 12.2580 97° East 511 588 37,000  Level FlightAware ADS-B
Mon 03:33:12 AM 63.0550 12.5050 97° East 519 597 37,000  Level FlightAware ADS-B
Mon 03:33:52 AM 63.0420 12.7120 98° East 520 598 37,000  Level FlightAware ADS-B
Mon 03:34:37 AM 63.0270 12.9470 98° East 519 597 37,000  Level FlightAware ADS-B
Mon 03:35:17 AM 63.0140 13.1510 98° East 516 594 37,000  Level FlightAware ADS-B
Mon 03:35:57 AM 63.0010 13.3610 98° East 514 592 37,000  Level FlightAware ADS-B
Mon 03:36:42 AM 62.9850 13.5880 99° East 513 590 37,000  Level FlightAware ADS-B
Mon 03:37:27 AM 62.9690 13.8330 98° East 511 588 37,000  Level FlightAware ADS-B
Mon 03:38:07 AM 62.9540 14.0380 99° East 514 592 37,000  Level FlightAware ADS-B
Mon 03:38:52 AM 62.9380 14.2620 99° East 511 588 37,000  Level FlightAware ADS-B
Mon 03:39:32 AM 62.9230 14.4680 99° East 508 585 37,000  Level FlightAware ADS-B
Mon 03:40:12 AM 62.9070 14.6800 99° East 508 585 37,000  Level FlightAware ADS-B
Mon 03:40:57 AM 62.8900 14.9050 99° East 509 586 37,000  Level FlightAware ADS-B
Mon 03:41:37 AM 62.8740 15.1080 100° East 507 583 37,000  Level FlightAware ADS-B
Mon 03:42:17 AM 62.8580 15.3070 100° East 510 587 37,000  Level FlightAware ADS-B
Mon 03:43:02 AM 62.8390 15.5360 100° East 516 594 37,000  Level FlightAware ADS-B
Mon 03:43:42 AM 62.8210 15.7490 100° East 520 598 37,000  Level FlightAware ADS-B
Mon 03:44:27 AM 62.8020 15.9800 100° East 522 601 37,000  Level FlightAware ADS-B
Mon 03:45:07 AM 62.7840 16.1870 101° East 522 601 37,000  Level FlightAware ADS-B
Mon 03:45:47 AM 62.7660 16.3870 101° East 521 600 37,000  Level FlightAware ADS-B
Mon 03:46:32 AM 62.7450 16.6210 101° East 522 601 37,000  Level FlightAware ADS-B
Mon 03:47:12 AM 62.7260 16.8320 101° East 522 601 37,000  Level FlightAware ADS-B
Mon 03:47:57 AM 62.7050 17.0590 101° East 520 598 37,000  Level FlightAware ADS-B
Mon 03:48:37 AM 62.6860 17.2600 102° East 515 593 37,000  Level FlightAware ADS-B
Mon 03:49:22 AM 62.6630 17.4950 102° East 516 594 37,000  Level FlightAware ADS-B
Mon 03:50:02 AM 62.6430 17.6980 102° East 518 596 37,000  Level FlightAware ADS-B
Mon 03:50:42 AM 62.6230 17.8990 102° East 519 597 37,000  Level FlightAware ADS-B
Mon 03:51:27 AM 62.6010 18.1220 102° East 516 594 37,000  Level FlightAware ADS-B
Mon 03:52:07 AM 62.5800 18.3210 103° East 514 592 37,000  Level FlightAware ADS-B
Mon 03:52:47 AM 62.5590 18.5240 103° East 511 588 37,000  Level FlightAware ADS-B
Mon 03:53:32 AM 62.5350 18.7520 103° East 509 586 37,000  Level FlightAware ADS-B
Mon 03:54:12 AM 62.5130 18.9520 103° East 512 589 37,000  Level FlightAware ADS-B
Mon 03:54:57 AM 62.4890 19.1720 103° East 510 587 37,000  Level FlightAware ADS-B
Mon 03:55:37 AM 62.4670 19.3650 104° East 509 586 37,000  Level FlightAware ADS-B
Mon 03:56:22 AM 62.4420 19.5850 104° East 507 583 37,000  Level FlightAware ADS-B
Mon 03:56:52 AM 62.4270 19.7190 104° East 507 583 37,000  Level FlightAware ADS-B
Mon 03:57:42 AM 62.3940 19.9840 105° East 505 581 37,000  Level FlightAware ADS-B
Mon 03:58:22 AM 62.3670 20.1730 107° East 504 580 37,000  Level FlightAware ADS-B
Mon 03:59:07 AM 62.3370 20.3820 107° East 502 578 37,000  Level FlightAware ADS-B
Mon 03:59:52 AM 62.3070 20.5910 107° East 503 579 37,000  Level FlightAware ADS-B
Mon 04:00:32 AM 62.2780 20.7900 107° East 502 578 37,000  Level FlightAware ADS-B
Mon 04:01:12 AM 62.2490 20.9830 108° East 502 578 37,000  Level FlightAware ADS-B
Mon 04:01:57 AM 62.2190 21.1910 107° East 501 577 37,000  Level FlightAware ADS-B
Mon 04:02:37 AM 62.1930 21.3660 108° East 500 575 37,000  Level FlightAware ADS-B
Mon 04:03:17 AM 62.1650 21.5500 108° East 502 578 37,000  Level FlightAware ADS-B
Mon 04:03:57 AM 62.1350 21.7460 108° East 507 583 37,000  Level FlightAware ADS-B
Mon 04:04:42 AM 62.1020 21.9570 108° East 509 586 37,000  Level FlightAware ADS-B
Mon 04:05:27 AM 62.0680 22.1720 109° East 510 587 37,000  Level FlightAware ADS-B
Mon 04:06:07 AM 62.0380 22.3620 109° East 510 587 37,000  Level FlightAware ADS-B
Mon 04:06:47 AM 62.0080 22.5510 109° East 510 587 37,000  Level FlightAware ADS-B
Mon 04:07:27 AM 61.9770 22.7410 109° East 508 585 37,000  Level FlightAware ADS-B
Mon 04:08:12 AM 61.9420 22.9540 109° East 508 585 37,000  Level FlightAware ADS-B
Mon 04:08:57 AM 61.9050 23.1680 110° East 511 588 37,000  Level FlightAware ADS-B
Mon 04:09:37 AM 61.8720 23.3510 111° Southeast 509 586 37,000  Level FlightAware ADS-B
Mon 04:10:22 AM 61.8340 23.5600 111° Southeast 510 587 37,000  Level FlightAware ADS-B
Mon 04:11:02 AM 61.8000 23.7480 111° Southeast 509 586 37,000  Level FlightAware ADS-B
Mon 04:11:42 AM 61.7670 23.9320 111° Southeast 512 589 37,000  Level FlightAware ADS-B
Mon 04:12:27 AM 61.7270 24.1430 112° Southeast 513 590 37,000  Level FlightAware ADS-B
Mon 04:13:07 AM 61.6920 24.3310 111° Southeast 515 593 37,000  Level FlightAware ADS-B
Mon 04:13:47 AM 61.6570 24.5180 111° Southeast 517 595 37,000  Level FlightAware ADS-B
Mon 04:14:32 AM 61.6200 24.7120 112° Southeast 517 595 37,000  Level FlightAware ADS-B
Mon 04:15:12 AM 61.5810 24.9130 112° Southeast 517 595 37,000  Level FlightAware ADS-B
Mon 04:15:57 AM 61.5400 25.1250 112° Southeast 517 595 37,000  Level FlightAware ADS-B
Mon 04:16:37 AM 61.5070 25.2900 113° Southeast 516 594 37,000  Level FlightAware ADS-B
Mon 04:17:17 AM 61.4680 25.4900 112° Southeast 513 590 37,000  Level FlightAware ADS-B
Mon 04:18:02 AM 61.4280 25.6900 113° Southeast 512 589 37,000  Level FlightAware ADS-B
Mon 04:18:37 AM 61.3990 25.8330 113° Southeast 510 587 37,000  Level FlightAware ADS-B
Mon 04:19:27 AM 61.3500 26.0710 113° Southeast 511 588 37,000  Level FlightAware ADS-B
Mon 04:20:07 AM 61.3100 26.2660 113° Southeast 513 590 37,000  Level FlightAware ADS-B
Mon 04:20:47 AM 61.2740 26.4400 113° Southeast 514 592 37,000  Level FlightAware ADS-B
Mon 04:21:32 AM 61.2310 26.6440 114° Southeast 520 598 37,000  Level FlightAware ADS-B
Mon 04:22:12 AM 61.1970 26.8030 114° Southeast 520 598 37,000  Level FlightAware ADS-B
Mon 04:22:47 AM 61.1620 26.9690 114° Southeast 519 597 37,000  Level FlightAware ADS-B
Mon 04:23:32 AM 61.1180 27.1730 114° Southeast 522 601 37,000  Level FlightAware ADS-B
Mon 04:24:12 AM 61.0790 27.3520 114° Southeast 525 604 37,000  Level FlightAware ADS-B
Mon 04:25:02 AM 61.0230 27.6060 114° Southeast 525 604 37,000  Level FlightAware ADS-B
Mon 04:25:37 AM 60.9950 27.7330 114° Southeast 523 602 37,000  Level FlightAware ADS-B
Mon 04:26:17 AM 60.9560 27.9060 115° Southeast 523 602 37,000  Level FlightAware ADS-B
Mon 04:27:07 AM 60.8970 28.1670 115° Southeast 521 600 37,000  Level FlightAware ADS-B
Mon 04:27:57 AM 60.8490 28.3530 118° Southeast 518 596 37,000  Level FlightAware ADS-B
Mon 04:28:47 AM 60.7710 28.5420 130° Southeast 509 586 37,000  Level FlightAware ADS-B
Mon 04:29:27 AM 60.7060 28.6730 135° Southeast 507 583 37,000  Level FlightAware ADS-B
Mon 04:30:22 AM 60.6150 28.8510 136° Southeast 505 581 37,000  Level FlightAware ADS-B
Mon 04:31:02 AM 60.5410 28.9960 136° Southeast 504 580 37,000  Level FlightAware ADS-B
Mon 04:31:47 AM 60.4750 29.1240 136° Southeast 504 580 37,000  Level FlightAware ADS-B
Mon 04:32:22 AM 60.4120 29.2470 136° Southeast 502 578 37,000  Level FlightAware ADS-B
Mon 04:33:12 AM 60.3280 29.4080 136° Southeast 501 577 37,000  Level FlightAware ADS-B
Mon 04:33:52 AM 60.2590 29.5410 136° Southeast 500 575 37,000  Level FlightAware ADS-B
Mon 04:34:27 AM 60.2050 29.6440 137° Southeast 500 575 37,000  Level FlightAware ADS-B
Mon 04:35:17 AM 60.1230 29.8000 137° Southeast 501 577 37,000  Level FlightAware ADS-B
Mon 04:35:52 AM 60.0600 29.9190 137° Southeast 502 578 37,000  Level FlightAware ADS-B
Mon 04:36:37 AM 59.9810 30.0700 136° Southeast 501 577 37,000  Level FlightAware ADS-B
Mon 04:37:22 AM 59.8970 30.2280 137° Southeast 495 570 37,000  Level FlightAware ADS-B
Mon 04:38:02 AM 59.8290 30.3540 137° Southeast 495 570 37,000  Level FlightAware ADS-B
Mon 04:38:47 AM 59.7510 30.5020 136° Southeast 494 568 37,000  Level FlightAware ADS-B
Mon 04:39:27 AM 59.7030 30.5900 137° Southeast 500 575 37,000  Level FlightAware ADS-B
Mon 04:40:12 AM 59.6220 30.7390 137° Southeast 501 577 37,000  Level FlightAware ADS-B
Mon 04:40:52 AM 59.5630 30.8470 137° Southeast 501 577 37,000  Level FlightAware ADS-B
Mon 04:41:32 AM 59.5050 30.9530 137° Southeast 501 577 37,000  Level FlightAware ADS-B
Mon 04:42:17 AM 59.4220 31.1020 138° Southeast 503 579 37,000  Level FlightAware ADS-B
Mon 04:42:57 AM 59.3520 31.2290 137° Southeast 503 579 37,000  Level FlightAware ADS-B
Mon 04:43:37 AM 59.2950 31.3350 136° Southeast 503 579 37,000  Level FlightAware ADS-B
Mon 04:44:17 AM 59.2370 31.4410 137° Southeast 503 579 37,000  Level FlightAware ADS-B
Mon 04:45:07 AM 59.1640 31.5720 137° Southeast 503 579 37,000  Level FlightAware ADS-B
Mon 04:45:47 AM 59.1070 31.6770 137° Southeast 503 579 37,000  Level FlightAware ADS-B
Mon 04:46:27 AM 59.0490 31.7820 137° Southeast 503 579 37,000  Level FlightAware ADS-B
Mon 04:47:07 AM 58.9910 31.8870 137° Southeast 503 579 37,000  Level FlightAware ADS-B
Mon 04:47:47 AM 58.9330 31.9920 137° Southeast 503 579 37,000  Level FlightAware ADS-B
Mon 04:48:37 AM 58.8610 32.1220 137° Southeast 503 579 37,000  Level FlightAware ADS-B
Mon 04:49:17 AM 58.8030 32.2270 137° Southeast 503 579 37,000  Level FlightAware ADS-B
Mon 04:49:57 AM 58.7450 32.3310 137° Southeast 503 579 37,000  Level FlightAware ADS-B
Mon 04:50:37 AM 58.6870 32.4350 137° Southeast 503 579 37,000  Level FlightAware ADS-B
Mon 04:51:27 AM 58.6150 32.5640 137° Southeast 503 579 37,000  Level FlightAware ADS-B
Mon 04:52:07 AM 58.5570 32.6680 137° Southeast 503 579 37,000  Level FlightAware ADS-B
Mon 04:54:00 AM 58.4104 33.0499 126° Southeast  Level Estimated
Mon 04:54:37 AM 58.2630 33.7180 126° Southeast 520 598 37,000  Level FlightAware ADS-B
Mon 04:55:37 AM 58.1670 33.9380 130° Southeast 520 598 37,000  Level FlightAware ADS-B
Mon 04:56:17 AM 58.1060 34.0780 129° Southeast 520 598 37,000  Level FlightAware ADS-B
Mon 04:57:02 AM 58.0380 34.2350 129° Southeast 519 597 37,000  Level FlightAware ADS-B
Mon 04:57:42 AM 57.9820 34.3630 129° Southeast 518 596 37,000  Level FlightAware ADS-B
Mon 04:58:27 AM 57.9120 34.5230 129° Southeast 517 595 37,000  Level FlightAware ADS-B
Mon 04:59:07 AM 57.8490 34.6660 130° Southeast 518 596 37,000  Level FlightAware ADS-B
Mon 04:59:47 AM 57.7930 34.7940 129° Southeast 517 595 37,000  Level FlightAware ADS-B
Mon 05:00:32 AM 57.7200 34.9540 130° Southeast 517 595 37,000  Level FlightAware ADS-B
Mon 05:01:12 AM 57.6520 35.0900 133° Southeast 515 593 37,000  Level FlightAware ADS-B
Mon 05:01:52 AM 57.5860 35.2150 135° Southeast 514 592 37,000  Level FlightAware ADS-B
Mon 05:02:37 AM 57.5130 35.3540 134° Southeast 514 592 37,000  Level FlightAware ADS-B
Mon 05:03:17 AM 57.4470 35.4800 134° Southeast 514 592 37,000  Level FlightAware ADS-B
Mon 05:03:57 AM 57.3780 35.6090 135° Southeast 512 589 37,000  Level FlightAware ADS-B
Mon 05:04:42 AM 57.3060 35.7440 135° Southeast 511 588 37,000  Level FlightAware ADS-B
Mon 05:05:22 AM 57.2370 35.8720 135° Southeast 511 588 37,000  Level FlightAware ADS-B
Mon 05:06:02 AM 57.1720 35.9910 135° Southeast 513 590 37,000  Level FlightAware ADS-B
Mon 05:06:47 AM 57.0950 36.1330 135° Southeast 514 592 37,000  Level FlightAware ADS-B
Mon 05:07:27 AM 57.0330 36.2460 135° Southeast 516 594 37,000  Level FlightAware ADS-B
Mon 05:08:12 AM 56.9560 36.3900 134° Southeast 517 595 37,000  Level FlightAware ADS-B
Mon 05:08:52 AM 56.8870 36.5180 135° Southeast 518 596 37,000  Level FlightAware ADS-B
Mon 05:09:32 AM 56.8190 36.6420 135° Southeast 521 600 37,000  Level FlightAware ADS-B
Mon 05:10:17 AM 56.7400 36.7820 136° Southeast 522 601 37,000  Level FlightAware ADS-B
Mon 05:10:57 AM 56.6720 36.9020 136° Southeast 522 601 37,000  Level FlightAware ADS-B
Mon 05:11:37 AM 56.6020 37.0260 136° Southeast 521 600 37,000  Level FlightAware ADS-B
Mon 05:12:22 AM 56.5240 37.1610 136° Southeast 520 598 37,000  Level FlightAware ADS-B
Mon 05:13:02 AM 56.4570 37.2780 136° Southeast 519 597 37,000  Level FlightAware ADS-B
Mon 05:13:47 AM 56.3800 37.4000 139° Southeast 512 589 37,000  Level FlightAware ADS-B
Mon 05:14:27 AM 56.2900 37.4640 158° South 499 574 37,000  Level FlightAware ADS-B
Mon 05:15:12 AM 56.1950 37.5050 166° South 499 574 37,000  Level FlightAware ADS-B
Mon 05:15:47 AM 56.1080 37.5400 167° South 499 574 37,000  Level FlightAware ADS-B
Mon 05:16:27 AM 56.0240 37.5740 167° South 500 575 37,000  Level FlightAware ADS-B
Mon 05:17:17 AM 55.9110 37.6210 167° South 500 575 37,000  Level FlightAware ADS-B
Mon 05:17:57 AM 55.8210 37.6580 167° South 500 575 37,000  Level FlightAware ADS-B
Mon 05:18:37 AM 55.7360 37.6930 167° South 501 577 37,000  Level FlightAware ADS-B
Mon 05:19:22 AM 55.6320 37.7350 167° South 500 575 37,000  Level FlightAware ADS-B
Mon 05:20:02 AM 55.5380 37.7730 167° South 499 574 37,000  Level FlightAware ADS-B
Mon 05:20:47 AM 55.4370 37.8140 167° South 499 574 37,000  Level FlightAware ADS-B
Mon 05:21:32 AM 55.3380 37.8530 167° South 500 575 37,000  Level FlightAware ADS-B
Mon 05:22:12 AM 55.2500 37.8880 167° South 499 574 37,000  Level FlightAware ADS-B
Mon 05:22:57 AM 55.1560 37.9250 167° South 499 574 37,000  Level FlightAware ADS-B
Mon 05:23:37 AM 55.0560 37.9650 167° South 499 574 37,000  Level FlightAware ADS-B
Mon 05:24:17 AM 54.9700 37.9980 168° South 499 574 37,000  Level FlightAware ADS-B
Mon 05:24:57 AM 54.8780 38.0340 167° South 499 574 37,000  Level FlightAware ADS-B
Mon 05:25:37 AM 54.7910 38.0680 167° South 499 574 37,000  Level FlightAware ADS-B
Mon 05:26:27 AM 54.6710 38.1140 168° South 497 572 37,000  Level FlightAware ADS-B
Mon 05:27:07 AM 54.5820 38.1480 168° South 496 571 37,000  Level FlightAware ADS-B
Mon 05:29:00 AM 54.4244 38.4758 129° Southeast  Level Estimated
Mon 05:30:00 AM 54.3404 38.6488 130° Southeast  Level Estimated
Mon 05:31:00 AM 54.2561 38.8211 130° Southeast  Level Estimated
Mon 05:32:00 AM 54.1716 38.9927 130° Southeast  Level Estimated
Mon 05:33:00 AM 54.0869 39.1636 130° Southeast  Level Estimated
Mon 05:34:00 AM 54.0019 39.3338 130° Southeast  Level Estimated
Mon 05:35:00 AM 53.9166 39.5033 130° Southeast  Level Estimated
Mon 05:36:00 AM 53.8312 39.6722 131° Southeast  Level Estimated
Mon 05:37:00 AM 53.7455 39.8403 131° Southeast  Level Estimated
Mon 05:38:00 AM 53.6595 40.0078 131° Southeast  Level Estimated
Mon 05:39:00 AM 53.5733 40.1745 131° Southeast  Level Estimated
Mon 05:40:00 AM 53.4869 40.3406 131° Southeast  Level Estimated
Mon 05:41:00 AM 53.4003 40.5060 131° Southeast  Level Estimated
Mon 05:41:07 AM 52.7190 38.8280 131° Southeast 488 562 37,000  Level FlightAware ADS-B
Mon 05:41:47 AM 52.6290 38.8560 169° South 489 563 37,000  Level FlightAware ADS-B
Mon 05:42:32 AM 52.5220 38.8900 169° South 489 563 37,000  Level FlightAware ADS-B
Mon 05:43:02 AM 52.4600 38.9090 169° South 490 564 37,000  Level FlightAware ADS-B
Mon 05:43:37 AM 52.3860 38.9570 158° South 500 575 37,000  Level FlightAware ADS-B
Mon 05:44:22 AM 52.3110 39.0800 135° Southeast 509 586 37,000  Level FlightAware ADS-B
Mon 05:45:17 AM 52.2310 39.2330 130° Southeast 506 582 37,000  Level FlightAware ADS-B
Mon 05:46:02 AM 52.1660 39.3580 130° Southeast 506 582 37,000  Level FlightAware ADS-B
Mon 05:46:37 AM 52.1180 39.4520 130° Southeast 506 582 37,000  Level FlightAware ADS-B
Mon 05:47:17 AM 52.0660 39.5510 130° Southeast 506 582 37,000  Level FlightAware ADS-B
Mon 05:48:07 AM 52.0020 39.6750 130° Southeast 506 582 37,000  Level FlightAware ADS-B
Mon 05:48:47 AM 51.9510 39.7740 130° Southeast 506 582 37,000  Level FlightAware ADS-B
Mon 05:49:27 AM 51.9000 39.8730 130° Southeast 506 582 37,000  Level FlightAware ADS-B
Mon 05:50:07 AM 51.8490 39.9720 130° Southeast 506 582 37,000  Level FlightAware ADS-B
Mon 05:50:47 AM 51.7980 40.0700 130° Southeast 506 582 37,000  Level FlightAware ADS-B
Mon 05:51:37 AM 51.6420 40.3070 137° Southeast 501 577 37,000  Level FlightAware ADS-B
Mon 05:52:17 AM 51.5740 40.4100 137° Southeast 503 579 37,000  Level FlightAware ADS-B
Mon 05:53:02 AM 51.4970 40.5260 137° Southeast 505 581 37,000  Level FlightAware ADS-B
Mon 05:53:42 AM 51.4280 40.6300 137° Southeast 507 583 37,000  Level FlightAware ADS-B
Mon 05:54:22 AM 51.3600 40.7320 137° Southeast 506 582 37,000  Level FlightAware ADS-B
Mon 05:55:07 AM 51.2830 40.8470 137° Southeast 507 583 37,000  Level FlightAware ADS-B
Mon 05:55:47 AM 51.2150 40.9480 137° Southeast 508 585 37,000  Level FlightAware ADS-B
Mon 05:56:32 AM 51.1380 41.0620 137° Southeast 508 585 37,000  Level FlightAware ADS-B
Mon 05:57:12 AM 51.0700 41.1630 137° Southeast 508 585 37,000  Level FlightAware ADS-B
Mon 05:57:52 AM 50.9990 41.2660 138° Southeast 511 588 37,000  Level FlightAware ADS-B
Mon 05:58:37 AM 50.9210 41.3810 137° Southeast 513 590 37,000  Level FlightAware ADS-B
Mon 05:59:17 AM 50.8510 41.4820 138° Southeast 514 592 37,000  Level FlightAware ADS-B
Mon 06:00:02 AM 50.7720 41.5960 138° Southeast 513 590 37,000  Level FlightAware ADS-B
Mon 06:00:42 AM 50.7030 41.6960 137° Southeast 511 588 37,000  Level FlightAware ADS-B
Mon 06:01:22 AM 50.6330 41.7960 138° Southeast 506 582 37,000  Level FlightAware ADS-B
Mon 06:02:07 AM 50.5560 41.9060 138° Southeast 504 580 37,000  Level FlightAware ADS-B
Mon 06:02:47 AM 50.4860 42.0050 138° Southeast 504 580 37,000  Level FlightAware ADS-B
Mon 06:03:32 AM 50.4090 42.1150 138° Southeast 505 581 37,000  Level FlightAware ADS-B
Mon 06:04:12 AM 50.3390 42.2120 138° Southeast 505 581 37,000  Level FlightAware ADS-B
Mon 06:04:52 AM 50.2700 42.3100 138° Southeast 505 581 37,000  Level FlightAware ADS-B
Mon 06:05:37 AM 50.1920 42.4180 138° Southeast 512 589 37,000  Level FlightAware ADS-B
Mon 06:06:17 AM 50.1200 42.5170 139° Southeast 512 589 37,000  Level FlightAware ADS-B
Mon 06:07:02 AM 50.0400 42.6270 139° Southeast 511 588 37,000  Level FlightAware ADS-B
Mon 06:07:42 AM 49.9700 42.7240 138° Southeast 510 587 37,000  Level FlightAware ADS-B
Mon 06:08:22 AM 49.9000 42.8210 138° Southeast 506 582 37,000  Level FlightAware ADS-B
Mon 06:09:07 AM 49.8210 42.9280 139° Southeast 503 579 37,000  Level FlightAware ADS-B
Mon 06:09:47 AM 49.7510 43.0220 139° Southeast 501 577 37,000  Level FlightAware ADS-B
Mon 06:10:27 AM 49.6820 43.1160 139° Southeast 500 575 37,000  Level FlightAware ADS-B
Mon 06:11:12 AM 49.6030 43.2210 139° Southeast 500 575 37,000  Level FlightAware ADS-B
Mon 06:11:52 AM 49.5350 43.3130 139° Southeast 500 575 37,000  Level FlightAware ADS-B
Mon 06:12:37 AM 49.4610 43.4110 139° Southeast 499 574 37,000  Level FlightAware ADS-B
Mon 06:15:00 AM 49.2528 43.7692 132° Southeast  Level Estimated
Mon 06:16:00 AM 49.1651 43.9185 132° Southeast  Level Estimated
Mon 06:17:00 AM 49.0772 44.0674 132° Southeast  Level Estimated
Mon 06:18:00 AM 48.9892 44.2157 132° Southeast  Level Estimated
Mon 06:19:00 AM 48.9009 44.3635 132° Southeast  Level Estimated
Mon 06:20:00 AM 48.8125 44.5108 132° Southeast  Level Estimated
Mon 06:20:32 AM 48.6440 44.5080 132° Southeast 492 566 37,000  Level FlightAware ADS-B
Mon 06:21:12 AM 48.5840 44.5820 141° Southeast 492 566 37,000  Level FlightAware ADS-B
Mon 06:21:52 AM 48.5240 44.6550 141° Southeast 492 566 37,000  Level FlightAware ADS-B
Mon 06:23:07 AM 48.3470 44.7890 153° Southeast 491 565 37,000  Level FlightAware ADS-B
Mon 06:23:47 AM 48.2830 44.8540 146° Southeast 491 565 37,000  Level FlightAware ADS-B
Mon 06:24:27 AM 48.2190 44.9190 146° Southeast 491 565 37,000  Level FlightAware ADS-B
Mon 06:25:57 AM 48.0300 45.1090 146° Southeast 492 566 37,000  Level FlightAware ADS-B
Mon 06:26:37 AM 47.9460 45.1910 147° Southeast 494 568 37,000  Level FlightAware ADS-B
Mon 06:27:17 AM 47.8700 45.2660 146° Southeast 495 570 37,000  Level FlightAware ADS-B
Mon 06:28:02 AM 47.7860 45.3480 147° Southeast 496 571 37,000  Level FlightAware ADS-B
Mon 06:28:42 AM 47.7060 45.4260 147° Southeast 497 572 37,000  Level FlightAware ADS-B
Mon 06:29:27 AM 47.6180 45.5130 146° Southeast 495 570 37,000  Level FlightAware ADS-B
Mon 06:30:17 AM 47.5260 45.6010 147° Southeast 496 571 37,000  Level FlightAware ADS-B
Mon 06:30:57 AM 47.4460 45.6800 146° Southeast 496 571 37,000  Level FlightAware ADS-B
Mon 06:31:42 AM 47.3570 45.7650 147° Southeast 495 570 37,000  Level FlightAware ADS-B
Mon 06:32:27 AM 47.2710 45.8470 147° Southeast 495 570 37,000  Level FlightAware ADS-B
Mon 06:33:07 AM 47.1940 45.9210 147° Southeast 493 567 37,000  Level FlightAware ADS-B
Mon 06:34:02 AM 47.0970 46.0130 147° Southeast 494 568 37,000  Level FlightAware ADS-B
Mon 06:34:47 AM 47.0030 46.1020 147° Southeast 495 570 37,000  Level FlightAware ADS-B
Mon 06:35:27 AM 46.9280 46.1720 147° Southeast 497 572 37,000  Level FlightAware ADS-B
Mon 06:36:12 AM 46.8380 46.2570 147° Southeast 494 568 37,000  Level FlightAware ADS-B
Mon 06:36:52 AM 46.7620 46.3290 147° Southeast 492 566 37,000  Level FlightAware ADS-B
Mon 06:37:32 AM 46.6860 46.4000 147° Southeast 491 565 37,000  Level FlightAware ADS-B
Mon 06:38:17 AM 46.6000 46.4800 147° Southeast 489 563 37,000  Level FlightAware ADS-B
Mon 06:38:57 AM 46.5280 46.5470 147° Southeast 485 558 37,000  Level FlightAware ADS-B
Mon 06:39:42 AM 46.4420 46.6260 148° Southeast 486 559 37,000  Level FlightAware ADS-B
Mon 06:40:22 AM 46.3660 46.6960 148° Southeast 488 562 37,000  Level FlightAware ADS-B
Mon 06:41:02 AM 46.2900 46.7670 147° Southeast 490 564 37,000  Level FlightAware ADS-B
Mon 06:41:47 AM 46.2030 46.8450 148° Southeast 489 563 37,000  Level FlightAware ADS-B
Mon 06:42:27 AM 46.1230 46.9090 151° Southeast 488 562 37,000  Level FlightAware ADS-B
Mon 06:43:07 AM 46.0440 46.9710 151° Southeast 490 564 37,000  Level FlightAware ADS-B
Mon 06:43:52 AM 45.9590 47.0380 151° Southeast 491 565 37,000  Level FlightAware ADS-B
Mon 06:44:32 AM 45.8930 47.1330 135° Southeast 500 575 37,000  Level FlightAware ADS-B
Mon 06:45:12 AM 45.8440 47.2370 124° Southeast 502 578 37,000  Level FlightAware ADS-B
Mon 06:45:52 AM 45.7880 47.3580 124° Southeast 503 579 37,000  Level FlightAware ADS-B
Mon 06:46:32 AM 45.7380 47.4640 124° Southeast 504 580 37,000  Level FlightAware ADS-B
Mon 06:47:22 AM 45.6720 47.6030 124° Southeast 504 580 37,000  Level FlightAware ADS-B
Mon 06:48:07 AM 45.6100 47.7320 124° Southeast 505 581 37,000  Level FlightAware ADS-B
Mon 06:49:02 AM 45.5380 47.8840 124° Southeast 504 580 37,000  Level FlightAware ADS-B
Mon 06:50:32 AM 45.4240 48.1210 124° Southeast 502 578 37,000  Level FlightAware ADS-B
Mon 06:51:17 AM 45.3640 48.2430 125° Southeast 501 577 37,000  Level FlightAware ADS-B
Mon 06:51:57 AM 45.3180 48.3390 124° Southeast 501 577 37,000  Level FlightAware ADS-B
Mon 06:52:57 AM 45.2340 48.5100 125° Southeast 497 572 37,000  Level FlightAware ADS-B
Mon 06:53:42 AM 45.1740 48.6330 125° Southeast 497 572 37,000  Level FlightAware ADS-B
Mon 06:54:22 AM 45.1210 48.7400 125° Southeast 499 574 37,000  Level FlightAware ADS-B
Mon 06:55:02 AM 45.0690 48.8440 125° Southeast 497 572 37,000  Level FlightAware ADS-B
Mon 06:55:47 AM 45.0110 48.9600 125° Southeast 497 572 37,000  Level FlightAware ADS-B
Mon 06:56:27 AM 44.9570 49.0690 125° Southeast 497 572 37,000  Level FlightAware ADS-B
Mon 06:57:12 AM 44.8920 49.1980 125° Southeast 495 570 37,000  Level FlightAware ADS-B
Mon 06:57:52 AM 44.8420 49.2980 125° Southeast 492 566 37,000  Level FlightAware ADS-B
Mon 06:58:37 AM 44.7810 49.4190 125° Southeast 490 564 37,000  Level FlightAware ADS-B
Mon 06:59:17 AM 44.7320 49.5160 125° Southeast 489 563 37,000  Level FlightAware ADS-B
Mon 07:00:02 AM 44.6680 49.6350 127° Southeast 488 562 37,000  Level FlightAware ADS-B
Mon 07:00:42 AM 44.6120 49.7370 128° Southeast 489 563 37,000  Level FlightAware ADS-B
Mon 07:01:17 AM 44.5650 49.8260 127° Southeast 489 563 37,000  Level FlightAware ADS-B
Mon 07:01:52 AM 44.5180 49.9120 127° Southeast 488 562 37,000  Level FlightAware ADS-B
Mon 07:02:42 AM 44.4530 50.0300 128° Southeast 488 562 37,000  Level FlightAware ADS-B
Mon 07:04:02 AM 44.3400 50.2380 127° Southeast 490 564 37,000  Level FlightAware ADS-B
Mon 07:04:47 AM 44.2770 50.3530 127° Southeast 491 565 37,000  Level FlightAware ADS-B
Mon 07:05:22 AM 44.2330 50.4340 127° Southeast 491 565 37,000  Level FlightAware ADS-B
Mon 07:06:07 AM 44.1680 50.5500 128° Southeast 490 564 37,000  Level FlightAware ADS-B
Mon 07:07:02 AM 44.0970 50.6790 127° Southeast 490 564 37,000  Level FlightAware ADS-B
Mon 07:07:42 AM 44.0510 50.7650 127° Southeast 490 564 37,000  Level FlightAware ADS-B
Mon 07:08:22 AM 44.0040 50.8500 128° Southeast 490 564 37,000  Level FlightAware ADS-B
Mon 07:09:12 AM 43.9210 50.9920 129° Southeast 490 564 37,000  Level FlightAware ADS-B
Mon 07:09:47 AM 43.8740 51.0750 128° Southeast 490 564 37,000  Level FlightAware ADS-B
Mon 07:10:27 AM 43.8270 51.1590 128° Southeast 490 564 37,000  Level FlightAware ADS-B
Mon 07:11:17 AM 43.7670 51.2640 128° Southeast 490 564 37,000  Level FlightAware ADS-B
Mon 07:11:57 AM 43.7200 51.3480 128° Southeast 490 564 37,000  Level FlightAware ADS-B
Mon 07:12:37 AM 43.6730 51.4320 128° Southeast 490 564 37,000  Level FlightAware ADS-B
Mon 07:13:17 AM 43.6250 51.5160 128° Southeast 490 564 37,000  Level FlightAware ADS-B
Mon 07:13:57 AM 43.5780 51.6000 128° Southeast 490 564 37,000  Level FlightAware ADS-B
Mon 07:14:47 AM 43.5180 51.7050 128° Southeast 490 564 37,000  Level FlightAware ADS-B
Mon 07:15:27 AM 43.4710 51.7880 128° Southeast 490 564 37,000  Level FlightAware ADS-B
Mon 07:16:07 AM 43.4230 51.8720 128° Southeast 490 564 37,000  Level FlightAware ADS-B
Mon 07:16:47 AM 43.3760 51.9550 128° Southeast 490 564 37,000  Level FlightAware ADS-B
Mon 07:17:27 AM 43.3280 52.0390 128° Southeast 490 564 37,000  Level FlightAware ADS-B
Mon 07:18:17 AM 43.2690 52.1430 128° Southeast 490 564 37,000  Level FlightAware ADS-B
Mon 07:18:57 AM 43.2220 52.2270 128° Southeast 490 564 37,000 14 Level FlightAware ADS-B
Mon 07:21:00 AM 43.0232 52.4733 138° Southeast  Level Estimated
Mon 07:22:00 AM 42.9260 52.5928 138° Southeast  Level Estimated
Mon 07:23:00 AM 42.8288 52.7120 138° Southeast  Level Estimated
Mon 07:24:00 AM 42.7313 52.8308 138° Southeast  Level Estimated
Mon 07:25:00 AM 42.6338 52.9493 138° Southeast  Level Estimated
Mon 07:26:00 AM 42.5362 53.0673 138° Southeast  Level Estimated
Mon 07:27:00 AM 42.4384 53.1850 138° Southeast  Level Estimated
Mon 07:28:00 AM 42.3405 53.3023 138° Southeast  Level Estimated
Mon 07:29:00 AM 42.2425 53.4193 139° Southeast  Level Estimated
Mon 07:30:00 AM 42.1443 53.5359 139° Southeast  Level Estimated
Mon 07:31:00 AM 42.0461 53.6521 139° Southeast  Level Estimated
Mon 07:32:00 AM 41.9477 53.7680 139° Southeast  Level Estimated
Mon 07:33:00 AM 41.8493 53.8835 139° Southeast  Level Estimated
Mon 07:34:00 AM 41.7506 53.9987 139° Southeast  Level Estimated
Mon 07:35:00 AM 41.6519 54.1135 139° Southeast  Level Estimated
Mon 07:36:00 AM 41.5531 54.2280 139° Southeast  Level Estimated
Mon 07:37:00 AM 41.4542 54.3421 139° Southeast  Level Estimated
Mon 07:38:00 AM 41.3551 54.4558 139° Southeast  Level Estimated
Mon 07:39:00 AM 41.2560 54.5693 139° Southeast  Level Estimated
Mon 07:40:00 AM 41.1567 54.6823 139° Southeast  Level Estimated
Mon 07:41:00 AM 41.0573 54.7951 139° Southeast  Level Estimated
Mon 07:42:00 AM 40.9578 54.9075 140° Southeast  Level Estimated
Mon 07:43:00 AM 40.8582 55.0195 140° Southeast  Level Estimated
Mon 07:44:00 AM 40.7585 55.1312 140° Southeast  Level Estimated
Mon 07:45:00 AM 40.6586 55.2426 140° Southeast  Level Estimated
Mon 07:46:00 AM 40.5587 55.3537 140° Southeast  Level Estimated
Mon 07:47:00 AM 40.4587 55.4644 140° Southeast  Level Estimated
Mon 07:48:00 AM 40.3586 55.5748 140° Southeast  Level Estimated
Mon 07:49:00 AM 40.2583 55.6848 140° Southeast  Level Estimated
Mon 07:50:00 AM 40.1580 55.7946 140° Southeast  Level Estimated
Mon 07:51:00 AM 40.0575 55.9040 140° Southeast  Level Estimated
Mon 07:52:00 AM 39.9570 56.0131 140° Southeast  Level Estimated
Mon 07:53:00 AM 39.8563 56.1218 140° Southeast  Level Estimated
Mon 07:54:00 AM 39.7556 56.2303 140° Southeast  Level Estimated
Mon 07:55:00 AM 39.6547 56.3384 140° Southeast  Level Estimated
Mon 07:56:00 AM 39.5537 56.4462 141° Southeast  Level Estimated
Mon 07:57:00 AM 39.4527 56.5537 141° Southeast  Level Estimated
Mon 07:58:00 AM 39.3515 56.6609 141° Southeast  Level Estimated
Mon 07:59:00 AM 39.2503 56.7678 141° Southeast  Level Estimated
Mon 08:00:00 AM 39.1489 56.8744 141° Southeast  Level Estimated
Mon 08:01:00 AM 39.0475 56.9806 141° Southeast  Level Estimated
Mon 08:02:00 AM 38.9459 57.0866 141° Southeast  Level Estimated
Mon 08:03:00 AM 38.8443 57.1923 141° Southeast  Level Estimated
Mon 08:04:00 AM 38.7426 57.2976 141° Southeast  Level Estimated
Mon 08:05:00 AM 38.6407 57.4027 141° Southeast  Level Estimated
Mon 08:06:00 AM 38.5389 57.5073 141° Southeast  Level Estimated
Mon 08:07:00 AM 38.4370 57.6117 141° Southeast  Level Estimated
Mon 08:08:00 AM 38.3350 57.7157 141° Southeast  Level Estimated
Mon 08:09:00 AM 38.2330 57.8195 141° Southeast  Level Estimated
Mon 08:10:00 AM 38.1308 57.9229 141° Southeast  Level Estimated
Mon 08:11:00 AM 38.0285 58.0261 142° Southeast  Level Estimated
Mon 08:12:00 AM 37.9262 58.1290 142° Southeast  Level Estimated
Mon 08:13:00 AM 37.8237 58.2316 142° Southeast  Level Estimated
Mon 08:14:00 AM 37.7212 58.3339 142° Southeast  Level Estimated
Mon 08:15:00 AM 37.6186 58.4359 142° Southeast  Level Estimated
Mon 08:16:00 AM 37.5159 58.5377 142° Southeast  Level Estimated
Mon 08:17:00 AM 37.4131 58.6391 142° Southeast  Level Estimated
Mon 08:18:00 AM 37.3102 58.7403 142° Southeast  Level Estimated
Mon 08:19:00 AM 37.2072 58.8413 142° Southeast  Level Estimated
Mon 08:20:00 AM 37.1042 58.9419 142° Southeast  Level Estimated
Mon 08:21:00 AM 37.0010 59.0423 142° Southeast  Level Estimated
Mon 08:22:00 AM 36.8978 59.1424 142° Southeast  Level Estimated
Mon 08:23:00 AM 36.7945 59.2422 142° Southeast  Level Estimated
Mon 08:24:00 AM 36.6911 59.3418 142° Southeast  Level Estimated
Mon 08:25:00 AM 36.5877 59.4410 142° Southeast  Level Estimated
Mon 08:26:00 AM 36.4841 59.5401 142° Southeast  Level Estimated
Mon 08:27:00 AM 36.3805 59.6388 142° Southeast  Level Estimated
Mon 08:28:00 AM 36.2768 59.7373 143° Southeast  Level Estimated
Mon 08:29:00 AM 36.1730 59.8355 143° Southeast  Level Estimated
Mon 08:30:00 AM 36.0691 59.9335 143° Southeast  Level Estimated
Mon 08:31:00 AM 35.9652 60.0312 143° Southeast  Level Estimated
Mon 08:32:00 AM 35.8611 60.1287 143° Southeast  Level Estimated
Mon 08:33:00 AM 35.7570 60.2259 143° Southeast  Level Estimated
Mon 08:34:00 AM 35.6528 60.3228 143° Southeast  Level Estimated
Mon 08:35:00 AM 35.5486 60.4195 143° Southeast  Level Estimated
Mon 08:36:00 AM 35.4442 60.5160 143° Southeast  Level Estimated
Mon 08:37:00 AM 35.3398 60.6122 143° Southeast  Level Estimated
Mon 08:38:00 AM 35.2353 60.7081 143° Southeast  Level Estimated
Mon 08:39:00 AM 35.1307 60.8038 143° Southeast  Level Estimated
Mon 08:40:00 AM 35.0261 60.8993 143° Southeast  Level Estimated
Mon 08:41:00 AM 34.9214 60.9945 143° Southeast  Level Estimated
Mon 08:42:00 AM 34.8166 61.0895 143° Southeast  Level Estimated
Mon 08:43:00 AM 34.7117 61.1842 143° Southeast  Level Estimated
Mon 08:44:00 AM 34.6068 61.2787 143° Southeast  Level Estimated
Mon 08:45:00 AM 34.5017 61.3729 144° Southeast  Level Estimated
Mon 08:46:00 AM 34.3966 61.4669 144° Southeast  Level Estimated
Mon 08:47:00 AM 34.2915 61.5607 144° Southeast  Level Estimated
Mon 08:48:00 AM 34.1863 61.6542 144° Southeast  Level Estimated
Mon 08:49:00 AM 34.0810 61.7476 144° Southeast  Level Estimated
Mon 08:50:00 AM 33.9756 61.8406 144° Southeast  Level Estimated
Mon 08:51:00 AM 33.8702 61.9335 144° Southeast  Level Estimated
Mon 08:52:00 AM 33.7646 62.0261 144° Southeast  Level Estimated
Mon 08:53:00 AM 33.6591 62.1185 144° Southeast  Level Estimated
Mon 08:54:00 AM 33.5534 62.2106 144° Southeast  Level Estimated
Mon 08:55:00 AM 33.4477 62.3026 144° Southeast  Level Estimated
Mon 08:56:00 AM 33.3419 62.3943 144° Southeast  Level Estimated
Mon 08:57:00 AM 33.2361 62.4857 144° Southeast  Level Estimated
Mon 08:58:00 AM 33.1301 62.5770 144° Southeast  Level Estimated
Mon 08:59:00 AM 33.0242 62.6681 144° Southeast  Level Estimated
Mon 09:00:00 AM 32.9181 62.7589 144° Southeast  Level Estimated
Mon 09:01:00 AM 32.8120 62.8495 144° Southeast  Level Estimated
Mon 09:02:00 AM 32.7058 62.9399 144° Southeast  Level Estimated
Mon 09:03:00 AM 32.5996 63.0301 144° Southeast  Level Estimated
Mon 09:04:00 AM 32.4933 63.1200 144° Southeast  Level Estimated
Mon 09:05:00 AM 32.3869 63.2098 145° Southeast  Level Estimated
Mon 09:06:00 AM 32.2804 63.2993 145° Southeast  Level Estimated
Mon 09:07:00 AM 32.1739 63.3887 145° Southeast  Level Estimated
Mon 09:08:00 AM 32.0674 63.4778 145° Southeast  Level Estimated
Mon 09:09:00 AM 31.9608 63.5667 145° Southeast  Level Estimated
Mon 09:10:00 AM 31.8541 63.6554 145° Southeast  Level Estimated
Mon 09:11:00 AM 31.7473 63.7439 145° Southeast  Level Estimated
Mon 09:12:00 AM 31.6405 63.8322 145° Southeast  Level Estimated
Mon 09:13:00 AM 31.5336 63.9203 145° Southeast  Level Estimated
Mon 09:14:00 AM 31.4267 64.0082 145° Southeast  Level Estimated
Mon 09:15:00 AM 31.3197 64.0959 145° Southeast  Level Estimated
Mon 09:16:00 AM 31.2127 64.1834 145° Southeast  Level Estimated
Mon 09:17:00 AM 31.1056 64.2707 145° Southeast  Level Estimated
Mon 09:18:00 AM 30.9984 64.3578 145° Southeast  Level Estimated
Mon 09:19:00 AM 30.8911 64.4447 145° Southeast  Level Estimated
Mon 09:20:00 AM 30.7839 64.5314 145° Southeast  Level Estimated
Mon 09:21:00 AM 30.6765 64.6180 145° Southeast  Level Estimated
Mon 09:22:00 AM 30.5691 64.7043 145° Southeast  Level Estimated
Mon 09:23:00 AM 30.4617 64.7904 145° Southeast  Level Estimated
Mon 09:24:00 AM 30.3542 64.8764 145° Southeast  Level Estimated
Mon 09:25:00 AM 30.2466 64.9621 145° Southeast  Level Estimated
Mon 09:26:00 AM 30.1390 65.0477 145° Southeast  Level Estimated
Mon 09:27:00 AM 30.0313 65.1331 146° Southeast  Level Estimated
Mon 09:28:00 AM 29.9236 65.2183 146° Southeast  Level Estimated
Mon 09:29:00 AM 29.8158 65.3033 146° Southeast  Level Estimated
Mon 09:30:00 AM 29.7079 65.3881 146° Southeast  Level Estimated
Mon 09:31:00 AM 29.6000 65.4728 146° Southeast  Level Estimated
Mon 09:32:00 AM 29.4921 65.5573 146° Southeast  Level Estimated
Mon 09:33:00 AM 29.3841 65.6415 146° Southeast  Level Estimated
Mon 09:34:00 AM 29.2764 65.7254 146° Southeast  Level Estimated
Mon 09:35:00 AM 29.1687 65.8090 146° Southeast  Level Estimated
Mon 09:36:00 AM 29.0609 65.8925 146° Southeast  Level Estimated
Mon 09:37:00 AM 28.9530 65.9758 146° Southeast  Level Estimated
Mon 09:38:00 AM 28.8451 66.0589 146° Southeast  Level Estimated
Mon 09:39:00 AM 28.7372 66.1418 146° Southeast  Level Estimated
Mon 09:40:00 AM 28.6292 66.2246 146° Southeast  Level Estimated
Mon 09:41:00 AM 28.5212 66.3072 146° Southeast  Level Estimated
Mon 09:42:00 AM 28.4131 66.3896 146° Southeast  Level Estimated
Mon 09:43:00 AM 28.3049 66.4719 146° Southeast  Level Estimated
Mon 09:44:00 AM 28.1968 66.5540 146° Southeast  Level Estimated
Mon 09:45:00 AM 28.0885 66.6359 146° Southeast  Level Estimated
Mon 09:46:00 AM 27.9802 66.7177 146° Southeast  Level Estimated
Mon 09:46:17 AM 27.3610 67.6730 146° Southeast 465 535 39,000  Level FlightAware ADS-B
Mon 09:46:57 AM 27.2840 67.7230 150° Southeast 463 533 39,000  Level FlightAware ADS-B
Mon 09:47:00 AM 27.8719 66.7993 146° Southeast  Level Estimated
Mon 09:47:42 AM 27.2020 67.7760 150° Southeast 464 534 39,000  Level FlightAware ADS-B
Mon 09:48:22 AM 27.1280 67.8230 151° Southeast 472 543 39,000  Level FlightAware ADS-B
Mon 09:49:02 AM 27.0530 67.8720 150° Southeast 478 550 39,000  Level FlightAware ADS-B
Mon 09:49:47 AM 26.9620 67.9300 150° Southeast 476 548 39,000  Level FlightAware ADS-B
Mon 09:50:27 AM 26.8840 67.9780 151° Southeast 480 552 39,000  Level FlightAware ADS-B
Mon 09:51:12 AM 26.7980 68.0300 152° Southeast 478 550 39,000  Level FlightAware ADS-B
Mon 09:51:52 AM 26.7210 68.0780 151° Southeast 478 550 39,000  Level FlightAware ADS-B
Mon 09:52:37 AM 26.6320 68.1320 152° Southeast 476 548 39,000  Level FlightAware ADS-B
Mon 09:53:17 AM 26.5540 68.1800 151° Southeast 477 549 39,000  Level FlightAware ADS-B
Mon 09:53:57 AM 26.4750 68.2290 151° Southeast 476 548 39,000  Level FlightAware ADS-B
Mon 09:54:42 AM 26.3910 68.2800 151° Southeast 477 549 39,000  Level FlightAware ADS-B
Mon 09:55:22 AM 26.3120 68.3280 151° Southeast 474 545 39,000  Level FlightAware ADS-B
Mon 09:56:02 AM 26.2370 68.3720 152° Southeast 466 536 39,000  Level FlightAware ADS-B
Mon 09:56:42 AM 26.1530 68.3980 164° South 451 519 39,000  Level FlightAware ADS-B
Mon 09:57:27 AM 26.0620 68.4150 170° South 453 521 39,000  Level FlightAware ADS-B
Mon 09:58:07 AM 25.9760 68.4300 171° South 454 522 39,000  Level FlightAware ADS-B
Mon 09:58:52 AM 25.8840 68.4470 171° South 457 526 39,000  Level FlightAware ADS-B
Mon 09:59:32 AM 25.8020 68.4620 171° South 457 526 39,000  Level FlightAware ADS-B
Mon 10:00:12 AM 25.7180 68.4780 170° South 457 526 39,000  Level FlightAware ADS-B
Mon 10:00:57 AM 25.6220 68.4950 171° South 460 529 39,000  Level FlightAware ADS-B
Mon 10:01:37 AM 25.5380 68.5110 170° South 461 531 39,000  Level FlightAware ADS-B
Mon 10:02:22 AM 25.4440 68.5280 171° South 463 533 39,000  Level FlightAware ADS-B
Mon 10:03:02 AM 25.3590 68.5430 171° South 463 533 39,000  Level FlightAware ADS-B
Mon 10:03:47 AM 25.2610 68.5610 171° South 462 532 39,000  Level FlightAware ADS-B
Mon 10:04:27 AM 25.1770 68.5760 171° South 461 531 39,000  Level FlightAware ADS-B
Mon 10:05:07 AM 25.0920 68.5910 171° South 461 531 39,000  Level FlightAware ADS-B
Mon 10:05:52 AM 25.0000 68.6080 170° South 460 529 39,000  Level FlightAware ADS-B
Mon 10:06:32 AM 24.9150 68.6230 171° South 460 529 39,000  Level FlightAware ADS-B
Mon 10:07:17 AM 24.8200 68.6410 170° South 463 533 39,000  Level FlightAware ADS-B
Mon 10:07:57 AM 24.7340 68.6560 171° South 463 533 39,000  Level FlightAware ADS-B
Mon 10:08:37 AM 24.6490 68.6710 171° South 462 532 39,000  Level FlightAware ADS-B
Mon 10:09:22 AM 24.5570 68.6880 170° South 461 531 39,000  Level FlightAware ADS-B
Mon 10:10:02 AM 24.4730 68.7030 171° South 462 532 39,000  Level FlightAware ADS-B
Mon 10:10:47 AM 24.3750 68.7210 171° South 464 534 39,000  Level FlightAware ADS-B
Mon 10:11:27 AM 24.2890 68.7360 171° South 463 533 39,000  Level FlightAware ADS-B
Mon 10:12:07 AM 24.2100 68.7500 171° South 462 532 39,000  Level FlightAware ADS-B
Mon 10:12:37 AM 24.1430 68.7760 160° South 486 559 39,000  Level FlightAware ADS-B
Mon 10:13:07 AM 24.1000 68.8320 130° Southeast 514 592 39,000  Level FlightAware ADS-B
Mon 10:13:47 AM 24.0700 68.9330 108° East 521 600 39,000  Level FlightAware ADS-B
Mon 10:14:27 AM 24.0480 69.0310 104° East 520 598 39,000  Level FlightAware ADS-B
Mon 10:15:27 AM 24.0130 69.1760 105° East 520 598 39,000  Level FlightAware ADS-B
Mon 10:16:07 AM 23.9920 69.2630 105° East 520 598 39,000  Level FlightAware ADS-B
Mon 10:16:47 AM 23.9570 69.3850 107° East 525 604 39,000  Level FlightAware ADS-B
Mon 10:17:27 AM 23.9330 69.4760 106° East 525 604 39,000  Level FlightAware ADS-B
Mon 10:18:07 AM 23.9100 69.5630 106° East 525 604 39,000  Level FlightAware ADS-B
Mon 10:18:47 AM 23.8870 69.6500 106° East 525 604 39,000  Level FlightAware ADS-B
Mon 10:19:52 AM 23.8340 69.8480 106° East 532 612 39,000  Level FlightAware ADS-B
Mon 10:20:32 AM 23.8110 69.9360 106° East 532 612 39,000  Level FlightAware ADS-B
Mon 10:21:17 AM 23.7720 70.0760 107° East 523 602 39,000  Level FlightAware ADS-B
Mon 10:22:12 AM 23.7360 70.2120 106° East 520 598 39,000  Level FlightAware ADS-B
Mon 10:22:52 AM 23.7140 70.2980 106° East 520 598 39,000  Level FlightAware ADS-B
Mon 10:23:32 AM 23.6910 70.3840 106° East 520 598 39,000  Level FlightAware ADS-B
Mon 10:24:12 AM 23.6690 70.4700 106° East 520 598 39,000  Level FlightAware ADS-B
Mon 10:25:02 AM 23.6400 70.5770 106° East 520 598 39,000  Level FlightAware ADS-B
Mon 10:25:42 AM 23.6180 70.6630 106° East 520 598 39,000  Level FlightAware ADS-B
Mon 10:26:22 AM 23.5950 70.7480 106° East 520 598 39,000  Level FlightAware ADS-B
Mon 10:27:02 AM 23.5730 70.8340 106° East 520 598 39,000  Level FlightAware ADS-B
Mon 10:27:22 AM 23.5110 70.9900 113° Southeast 499 574 39,000  Level FlightAware ADS-B
Mon 10:27:57 AM 23.4680 71.0560 125° Southeast 499 574 39,000  Level FlightAware ADS-B
Mon 10:28:37 AM 23.4230 71.1260 125° Southeast 499 574 39,000  Level FlightAware ADS-B
Mon 10:29:27 AM 23.3670 71.2140 125° Southeast 499 574 39,000  Level FlightAware ADS-B
Mon 10:30:07 AM 23.3220 71.2840 125° Southeast 499 574 39,000  Level FlightAware ADS-B
Mon 10:30:47 AM 23.2770 71.3540 125° Southeast 499 574 39,000  Level FlightAware ADS-B
Mon 10:31:27 AM 23.2310 71.4240 126° Southeast 499 574 39,000  Level FlightAware ADS-B
Mon 10:32:07 AM 23.1860 71.4940 125° Southeast 499 574 39,000  Level FlightAware ADS-B
Mon 10:32:57 AM 23.1300 71.5810 125° Southeast 499 574 39,000  Level FlightAware ADS-B
Mon 10:33:37 AM 23.0850 71.6510 125° Southeast 499 574 39,000  Level FlightAware ADS-B
Mon 10:34:17 AM 23.0400 71.7210 125° Southeast 499 574 39,000  Level FlightAware ADS-B
Mon 10:34:57 AM 22.9950 71.7910 125° Southeast 499 574 39,000  Level FlightAware ADS-B
Mon 10:35:37 AM 22.9500 71.8610 125° Southeast 499 574 39,000  Level FlightAware ADS-B
Mon 10:36:27 AM 22.8940 71.9480 125° Southeast 499 574 39,000  Level FlightAware ADS-B
Mon 10:37:07 AM 22.8490 72.0180 125° Southeast 499 574 39,000  Level FlightAware ADS-B
Mon 10:39:00 AM 22.6099 72.0734 168° South  Level Estimated
Mon 10:40:00 AM 22.4829 72.1027 168° South  Level Estimated
Mon 10:41:00 AM 22.3559 72.1320 168° South  Level Estimated
Mon 10:42:00 AM 22.2289 72.1612 168° South  Level Estimated
Mon 10:43:00 AM 22.1019 72.1904 168° South  Level Estimated
Mon 10:44:00 AM 21.9749 72.2196 168° South  Level Estimated
Mon 10:45:00 AM 21.8479 72.2486 168° South  Level Estimated
Mon 10:46:00 AM 21.7209 72.2776 168° South  Level Estimated
Mon 10:47:00 AM 21.5939 72.3066 168° South  Level Estimated
Mon 10:48:00 AM 21.4669 72.3355 168° South  Level Estimated
Mon 10:49:00 AM 21.3399 72.3644 168° South  Level Estimated
Mon 10:50:00 AM 21.2128 72.3932 168° South  Level Estimated
Mon 10:51:00 AM 21.0858 72.4220 168° South  Level Estimated
Mon 10:52:00 AM 20.9588 72.4507 168° South  Level Estimated
Mon 10:53:00 AM 20.8317 72.4794 168° South  Level Estimated
Mon 10:54:00 AM 20.7047 72.5080 168° South  Level Estimated
Mon 10:55:00 AM 20.5776 72.5366 168° South  Level Estimated
Mon 10:56:00 AM 20.4506 72.5651 168° South  Level Estimated
Mon 10:57:00 AM 20.3235 72.5936 168° South  Level Estimated
Mon 10:58:00 AM 20.1964 72.6220 168° South  Level Estimated
Mon 10:59:00 AM 20.0694 72.6504 168° South  Level Estimated
Mon 11:00:00 AM 19.9423 72.6787 168° South  Level Estimated
Mon 11:01:00 AM 19.8152 72.7070 168° South  Level Estimated
Mon 11:02:00 AM 19.6881 72.7353 168° South  Level Estimated
Mon 11:03:00 AM 19.5610 72.7635 168° South  Level Estimated
Mon 11:04:00 AM 19.4340 72.7916 168° South  Level Estimated
Mon 11:05:00 AM 19.3064 72.8199 168° South  Level Estimated
Mon 11:06:00 AM 19.1789 72.8480 168° South  Level Estimated
Mon 11:07:00 AM 19.0887 72.8679 168° South  Level Estimated
Mon 11:08:00 AM 19.0887 72.8679 193° South  Level Estimated
Mon 11:09:00 AM 19.0887 72.8679 193° South  Level Estimated
Mon 11:10:00 AM 19.0887 72.8679 193° South  Level Estimated
Mon 11:11:00 AM 19.0887 72.8679 193° South  Level Estimated
Mon 11:12:00 AM 19.0887 72.8679 193° South  Level Estimated
Mon 11:13:00 AM 19.0887 72.8679 193° South  Level Estimated
Mon 11:14:00 AM 19.0887 72.8679 193° South  Level Estimated
Mon 11:15:00 AM 19.0887 72.8679 193° South  Level Estimated
Mon 11:16:00 AM 19.0887 72.8679 193° South  Level Estimated
Mon 11:17:00 AM 19.0887 72.8679 193° South  Level Estimated
Mon 11:18:00 AM 19.0887 72.8679 193° South  Level Estimated
Mon 11:19:00 AM 19.0887 72.8679 193° South  Level Estimated
Mon 11:20:00 AM 19.0887 72.8679 193° South  Level Estimated

Login

Don't have an account? Register now (free) for customized features, flight alerts, and more!